BAW19N EGLL-TXKF
Flight info
| Callsign | BAW19N |
|---|---|
| Flight time | 6h 56m |
| Altitude | 36000 |
| Route | CPT L9 BUCGO DCT FELCA DCT OFSOX DCT BANBA DCT LIMRI/M083F380 DCT 52N020W 5130N03000W 5030N04000W 4730N05000W DCT OMSAT DCT LOMPI/M083F400 DCT SOORY DCT RNGRS MOMOM1 |
| Aircraft | B772/H-SDE2E3FGHIJ5LORVWXY/LB1D1 |
Departure
| Time | 2026-04-26 04:49 |
|---|---|
| Airport | London Heathrow Airport (EGLL) |
Arrival
| Time | 2026-04-26 11:45 |
|---|---|
| Airport | L.F. Wade International Airport (TXKF) |
| Time | Latitude | Longitude | Altitude | Speed | Heading |
|---|---|---|---|---|---|
| 2026-04-26 04:01 | 51.47431 | -0.45857 | 94 ft | 0 kts | 180° |
| 2026-04-26 04:33 | 51.47432 | -0.45857 | 91 ft | 2 kts | 180° |
| 2026-04-26 04:33 | 51.47458 | -0.45858 | 91 ft | 4 kts | 179° |
| 2026-04-26 04:34 | 51.47481 | -0.45858 | 91 ft | 4 kts | 184° |
| 2026-04-26 04:34 | 51.47504 | -0.45850 | 92 ft | 4 kts | 217° |
| 2026-04-26 04:34 | 51.47516 | -0.45826 | 92 ft | 4 kts | 261° |
| 2026-04-26 04:34 | 51.47516 | -0.45785 | 92 ft | 4 kts | 279° |
| 2026-04-26 04:35 | 51.47512 | -0.45745 | 92 ft | 4 kts | 279° |
| 2026-04-26 04:35 | 51.47508 | -0.45702 | 94 ft | 4 kts | 273° |
| 2026-04-26 04:35 | 51.47507 | -0.45659 | 92 ft | 4 kts | 270° |
| 2026-04-26 04:35 | 51.47508 | -0.45640 | 92 ft | 0 kts | 269° |
| 2026-04-26 04:37 | 51.47507 | -0.45660 | 92 ft | 6 kts | 269° |
| 2026-04-26 04:38 | 51.47508 | -0.45716 | 93 ft | 2 kts | 274° |
| 2026-04-26 04:38 | 51.47509 | -0.45731 | 93 ft | 2 kts | 278° |
| 2026-04-26 04:38 | 51.47517 | -0.45827 | 92 ft | 10 kts | 274° |
| 2026-04-26 04:38 | 51.47517 | -0.45903 | 92 ft | 10 kts | 269° |
| 2026-04-26 04:39 | 51.47517 | -0.46018 | 91 ft | 10 kts | 269° |
| 2026-04-26 04:39 | 51.47516 | -0.46133 | 91 ft | 10 kts | 269° |
| 2026-04-26 04:39 | 51.47516 | -0.46261 | 91 ft | 13 kts | 270° |
| 2026-04-26 04:39 | 51.47515 | -0.46411 | 91 ft | 14 kts | 269° |
| 2026-04-26 04:40 | 51.47514 | -0.46574 | 94 ft | 15 kts | 270° |
| 2026-04-26 04:40 | 51.47507 | -0.46720 | 95 ft | 10 kts | 251° |
| 2026-04-26 04:40 | 51.47494 | -0.46832 | 95 ft | 10 kts | 261° |
| 2026-04-26 04:40 | 51.47452 | -0.46890 | 93 ft | 9 kts | 189° |
| 2026-04-26 04:41 | 51.47394 | -0.46878 | 95 ft | 9 kts | 167° |
| 2026-04-26 04:41 | 51.47313 | -0.46869 | 94 ft | 16 kts | 180° |
| 2026-04-26 04:41 | 51.47187 | -0.46868 | 91 ft | 19 kts | 180° |
| 2026-04-26 04:41 | 51.47047 | -0.46867 | 91 ft | 21 kts | 180° |
| 2026-04-26 04:42 | 51.46897 | -0.46865 | 91 ft | 22 kts | 180° |
| 2026-04-26 04:42 | 51.46750 | -0.46864 | 94 ft | 15 kts | 180° |
| 2026-04-26 04:42 | 51.46678 | -0.46880 | 94 ft | 9 kts | 217° |
| 2026-04-26 04:42 | 51.46659 | -0.46937 | 95 ft | 4 kts | 260° |
| 2026-04-26 04:43 | 51.46657 | -0.46994 | 94 ft | 9 kts | 268° |
| 2026-04-26 04:43 | 51.46656 | -0.47106 | 94 ft | 10 kts | 269° |
| 2026-04-26 04:43 | 51.46655 | -0.47219 | 94 ft | 10 kts | 270° |
| 2026-04-26 04:43 | 51.46655 | -0.47330 | 94 ft | 10 kts | 270° |
| 2026-04-26 04:44 | 51.46655 | -0.47443 | 94 ft | 10 kts | 270° |
| 2026-04-26 04:44 | 51.46655 | -0.47556 | 94 ft | 10 kts | 270° |
| 2026-04-26 04:44 | 51.46655 | -0.47674 | 94 ft | 12 kts | 270° |
| 2026-04-26 04:44 | 51.46654 | -0.47820 | 92 ft | 13 kts | 269° |
| 2026-04-26 04:45 | 51.46652 | -0.47969 | 91 ft | 14 kts | 269° |
| 2026-04-26 04:45 | 51.46652 | -0.48133 | 91 ft | 15 kts | 270° |
| 2026-04-26 04:45 | 51.46652 | -0.48304 | 91 ft | 16 kts | 270° |
| 2026-04-26 04:45 | 51.46651 | -0.48488 | 91 ft | 18 kts | 269° |
| 2026-04-26 04:46 | 51.46650 | -0.48661 | 94 ft | 10 kts | 270° |
| 2026-04-26 04:46 | 51.46634 | -0.48737 | 96 ft | 7 kts | 230° |
| 2026-04-26 04:46 | 51.46599 | -0.48770 | 95 ft | 4 kts | 198° |
| 2026-04-26 04:46 | 51.46571 | -0.48784 | 95 ft | 4 kts | 195° |
| 2026-04-26 04:47 | 51.46538 | -0.48786 | 91 ft | 6 kts | 172° |
| 2026-04-26 04:47 | 51.46497 | -0.48752 | 94 ft | 7 kts | 137° |
| 2026-04-26 04:47 | 51.46476 | -0.48682 | 96 ft | 7 kts | 98° |
| 2026-04-26 04:47 | 51.46477 | -0.48628 | 95 ft | 1 kts | 89° |
| 2026-04-26 04:48 | 51.46481 | -0.47780 | 91 ft | 100 kts | 89° |
| 2026-04-26 04:48 | 51.46490 | -0.46341 | 100 ft | 158 kts | 87° |
| 2026-04-26 04:48 | 51.46450 | -0.44566 | 677 ft | 159 kts | 94° |
| 2026-04-26 04:49 | 51.46312 | -0.42772 | 1361 ft | 168 kts | 97° |
| 2026-04-26 04:49 | 51.46152 | -0.40783 | 1530 ft | 190 kts | 101° |
| 2026-04-26 04:49 | 51.45642 | -0.38720 | 1707 ft | 210 kts | 125° |
| 2026-04-26 04:49 | 51.44471 | -0.37156 | 1854 ft | 233 kts | 157° |
| 2026-04-26 04:50 | 51.42827 | -0.36813 | 2225 ft | 247 kts | 188° |
| 2026-04-26 04:50 | 51.41227 | -0.37886 | 2765 ft | 256 kts | 217° |
| 2026-04-26 04:50 | 51.40090 | -0.40113 | 3298 ft | 265 kts | 246° |
| 2026-04-26 04:50 | 51.39786 | -0.43003 | 3906 ft | 269 kts | 276° |
| 2026-04-26 04:51 | 51.40175 | -0.45925 | 4429 ft | 271 kts | 284° |
| 2026-04-26 04:51 | 51.40630 | -0.48872 | 5053 ft | 273 kts | 283° |
| 2026-04-26 04:51 | 51.41052 | -0.51841 | 5716 ft | 274 kts | 282° |
| 2026-04-26 04:51 | 51.41444 | -0.54843 | 6346 ft | 275 kts | 281° |
| 2026-04-26 04:52 | 51.41809 | -0.57839 | 7027 ft | 274 kts | 281° |
| 2026-04-26 04:52 | 51.42159 | -0.60847 | 7587 ft | 276 kts | 280° |
| 2026-04-26 04:52 | 51.42500 | -0.63884 | 8134 ft | 278 kts | 280° |
| 2026-04-26 04:52 | 51.42832 | -0.66914 | 8680 ft | 280 kts | 280° |
| 2026-04-26 04:53 | 51.43170 | -0.70031 | 9263 ft | 281 kts | 280° |
| 2026-04-26 04:53 | 51.43504 | -0.73134 | 9821 ft | 283 kts | 280° |
| 2026-04-26 04:53 | 51.43842 | -0.76182 | 10321 ft | 286 kts | 281° |
| 2026-04-26 04:53 | 51.44240 | -0.79428 | 10623 ft | 299 kts | 281° |
| 2026-04-26 04:54 | 51.44650 | -0.82752 | 10770 ft | 317 kts | 281° |
| 2026-04-26 04:54 | 51.45095 | -0.86382 | 10918 ft | 338 kts | 281° |
| 2026-04-26 04:54 | 51.45546 | -0.90138 | 11083 ft | 357 kts | 280° |
| 2026-04-26 04:54 | 51.46008 | -0.94162 | 11592 ft | 367 kts | 280° |
| 2026-04-26 04:55 | 51.46464 | -0.98173 | 12258 ft | 373 kts | 280° |
| 2026-04-26 04:55 | 51.46931 | -1.02279 | 13138 ft | 376 kts | 279° |
| 2026-04-26 04:55 | 51.47408 | -1.06412 | 14056 ft | 378 kts | 279° |
| 2026-04-26 04:55 | 51.47891 | -1.10584 | 14830 ft | 382 kts | 279° |
| 2026-04-26 04:56 | 51.48377 | -1.14807 | 15577 ft | 387 kts | 279° |
| 2026-04-26 04:56 | 51.48894 | -1.19065 | 16279 ft | 388 kts | 284° |
| 2026-04-26 04:56 | 51.50011 | -1.23050 | 16788 ft | 399 kts | 304° |
| 2026-04-26 04:56 | 51.51908 | -1.26319 | 17515 ft | 403 kts | 317° |
| 2026-04-26 04:57 | 51.54016 | -1.29335 | 18211 ft | 408 kts | 316° |
| 2026-04-26 04:57 | 51.56126 | -1.32439 | 18924 ft | 412 kts | 316° |
| 2026-04-26 04:57 | 51.58222 | -1.35595 | 19679 ft | 414 kts | 314° |
| 2026-04-26 04:57 | 51.60144 | -1.38988 | 20405 ft | 415 kts | 307° |
| 2026-04-26 04:58 | 51.61848 | -1.42751 | 21131 ft | 417 kts | 302° |
| 2026-04-26 04:58 | 51.63303 | -1.46818 | 21840 ft | 419 kts | 296° |
| 2026-04-26 04:58 | 51.64650 | -1.51002 | 22502 ft | 423 kts | 296° |
| 2026-04-26 04:58 | 51.66013 | -1.55232 | 23160 ft | 426 kts | 296° |
| 2026-04-26 04:59 | 51.67396 | -1.59466 | 23826 ft | 429 kts | 296° |
| 2026-04-26 04:59 | 51.68766 | -1.63748 | 24359 ft | 430 kts | 293° |
| 2026-04-26 04:59 | 51.69845 | -1.68244 | 24851 ft | 432 kts | 287° |
| 2026-04-26 04:59 | 51.70640 | -1.72934 | 25357 ft | 434 kts | 282° |
| 2026-04-26 05:00 | 51.71135 | -1.77751 | 25821 ft | 436 kts | 276° |
| 2026-04-26 05:00 | 51.71453 | -1.82623 | 26292 ft | 438 kts | 276° |
| 2026-04-26 05:00 | 51.71774 | -1.87513 | 26737 ft | 441 kts | 276° |
| 2026-04-26 05:00 | 51.72114 | -1.92445 | 27165 ft | 443 kts | 276° |
| 2026-04-26 05:01 | 51.72464 | -1.97396 | 27596 ft | 445 kts | 276° |
| 2026-04-26 05:01 | 51.72818 | -2.02364 | 28014 ft | 447 kts | 276° |
| 2026-04-26 05:01 | 51.73171 | -2.07360 | 28415 ft | 449 kts | 276° |
| 2026-04-26 05:01 | 51.73521 | -2.12369 | 28801 ft | 451 kts | 276° |
| 2026-04-26 05:02 | 51.73870 | -2.17403 | 29157 ft | 452 kts | 276° |
| 2026-04-26 05:02 | 51.74220 | -2.22446 | 29473 ft | 455 kts | 276° |
| 2026-04-26 05:02 | 51.74572 | -2.27539 | 29722 ft | 458 kts | 276° |
| 2026-04-26 05:02 | 51.74925 | -2.32661 | 29971 ft | 460 kts | 276° |
| 2026-04-26 05:03 | 51.75275 | -2.37793 | 30240 ft | 461 kts | 276° |
| 2026-04-26 05:03 | 51.75624 | -2.42932 | 30562 ft | 460 kts | 276° |
| 2026-04-26 05:03 | 51.75971 | -2.48062 | 30923 ft | 458 kts | 276° |
| 2026-04-26 05:03 | 51.76313 | -2.53176 | 31265 ft | 457 kts | 276° |
| 2026-04-26 05:04 | 51.76640 | -2.58276 | 31592 ft | 456 kts | 275° |
| 2026-04-26 05:04 | 51.76954 | -2.63362 | 31888 ft | 455 kts | 275° |
| 2026-04-26 05:04 | 51.77277 | -2.68448 | 32194 ft | 455 kts | 276° |
| 2026-04-26 05:04 | 51.77603 | -2.73516 | 32517 ft | 453 kts | 276° |
| 2026-04-26 05:05 | 51.77925 | -2.78506 | 32851 ft | 452 kts | 275° |
| 2026-04-26 05:05 | 51.78248 | -2.83547 | 33143 ft | 451 kts | 275° |
| 2026-04-26 05:05 | 51.78568 | -2.88583 | 33455 ft | 450 kts | 275° |
| 2026-04-26 05:05 | 51.78884 | -2.93597 | 33762 ft | 449 kts | 275° |
| 2026-04-26 05:06 | 51.79197 | -2.98610 | 34082 ft | 448 kts | 275° |
| 2026-04-26 05:06 | 51.79506 | -3.03608 | 34391 ft | 446 kts | 275° |
| 2026-04-26 05:06 | 51.79812 | -3.08585 | 34617 ft | 446 kts | 275° |
| 2026-04-26 05:06 | 51.80116 | -3.13569 | 34804 ft | 446 kts | 275° |
| 2026-04-26 05:07 | 51.80419 | -3.18572 | 35002 ft | 447 kts | 275° |
| 2026-04-26 05:07 | 51.80720 | -3.23568 | 35212 ft | 447 kts | 275° |
| 2026-04-26 05:07 | 51.81018 | -3.28553 | 35416 ft | 447 kts | 275° |
| 2026-04-26 05:07 | 51.81315 | -3.33558 | 35632 ft | 447 kts | 275° |
| 2026-04-26 05:08 | 51.81609 | -3.38550 | 35824 ft | 447 kts | 275° |
| 2026-04-26 05:08 | 51.81903 | -3.43559 | 36014 ft | 447 kts | 275° |
| 2026-04-26 05:08 | 51.82194 | -3.48563 | 36166 ft | 448 kts | 275° |
| 2026-04-26 05:08 | 51.82507 | -3.53581 | 36220 ft | 450 kts | 277° |
| 2026-04-26 05:09 | 51.83692 | -3.63519 | 36249 ft | 449 kts | 281° |
| 2026-04-26 05:09 | 51.85004 | -3.73374 | 36251 ft | 447 kts | 281° |
| 2026-04-26 05:10 | 51.86288 | -3.83194 | 36256 ft | 446 kts | 281° |
| 2026-04-26 05:10 | 51.87538 | -3.92952 | 36255 ft | 446 kts | 280° |
| 2026-04-26 05:11 | 51.88785 | -4.02796 | 36247 ft | 447 kts | 280° |
| 2026-04-26 05:11 | 51.90028 | -4.12684 | 36246 ft | 448 kts | 280° |
| 2026-04-26 05:12 | 51.91263 | -4.22570 | 36243 ft | 448 kts | 280° |
| 2026-04-26 05:12 | 51.92493 | -4.32486 | 36242 ft | 449 kts | 280° |
| 2026-04-26 05:13 | 51.93714 | -4.42406 | 36246 ft | 449 kts | 279° |
| 2026-04-26 05:13 | 51.94928 | -4.52336 | 36246 ft | 449 kts | 279° |
| 2026-04-26 05:14 | 51.96134 | -4.62282 | 36241 ft | 449 kts | 279° |
| 2026-04-26 05:14 | 51.97331 | -4.72221 | 36247 ft | 449 kts | 279° |
| 2026-04-26 05:15 | 51.98519 | -4.82162 | 36239 ft | 449 kts | 279° |
| 2026-04-26 05:15 | 51.99698 | -4.92108 | 36239 ft | 449 kts | 279° |
| 2026-04-26 05:16 | 52.00870 | -5.02058 | 36242 ft | 449 kts | 279° |
| 2026-04-26 05:16 | 52.02036 | -5.12036 | 36245 ft | 449 kts | 278° |
| 2026-04-26 05:17 | 52.02574 | -5.22021 | 36248 ft | 447 kts | 269° |
| 2026-04-26 05:17 | 52.02096 | -5.32062 | 36243 ft | 446 kts | 262° |
| 2026-04-26 05:18 | 52.01356 | -5.42065 | 36240 ft | 447 kts | 262° |
| 2026-04-26 05:18 | 52.00622 | -5.52093 | 36243 ft | 447 kts | 262° |
| 2026-04-26 05:19 | 51.99900 | -5.62129 | 36242 ft | 447 kts | 262° |
| 2026-04-26 05:19 | 51.99177 | -5.72150 | 36240 ft | 448 kts | 262° |
| 2026-04-26 05:20 | 51.98444 | -5.82185 | 36243 ft | 447 kts | 262° |
| 2026-04-26 05:20 | 51.97702 | -5.92206 | 36241 ft | 447 kts | 262° |
| 2026-04-26 05:21 | 51.96952 | -6.02229 | 36241 ft | 447 kts | 262° |
| 2026-04-26 05:21 | 51.96200 | -6.12179 | 36242 ft | 447 kts | 262° |
| 2026-04-26 05:22 | 51.95483 | -6.22186 | 36243 ft | 447 kts | 265° |
| 2026-04-26 05:22 | 51.95581 | -6.32272 | 36243 ft | 449 kts | 272° |
| 2026-04-26 05:23 | 51.95960 | -6.40721 | 36247 ft | 449 kts | 272° |
| 2026-04-26 05:23 | 51.96399 | -6.50830 | 36239 ft | 449 kts | 272° |
| 2026-04-26 05:24 | 51.96810 | -6.60868 | 36240 ft | 449 kts | 272° |
| 2026-04-26 05:24 | 51.97207 | -6.71033 | 36232 ft | 449 kts | 271° |
| 2026-04-26 05:25 | 51.97589 | -6.81068 | 36239 ft | 449 kts | 271° |
| 2026-04-26 05:25 | 51.97965 | -6.91174 | 36234 ft | 449 kts | 271° |
| 2026-04-26 05:26 | 51.98333 | -7.01280 | 36238 ft | 449 kts | 271° |
| 2026-04-26 05:26 | 51.98692 | -7.11392 | 36237 ft | 449 kts | 271° |
| 2026-04-26 05:27 | 51.99042 | -7.21500 | 36225 ft | 449 kts | 271° |
| 2026-04-26 05:27 | 51.99384 | -7.31604 | 36237 ft | 448 kts | 271° |
| 2026-04-26 05:28 | 51.99717 | -7.41717 | 36231 ft | 448 kts | 271° |
| 2026-04-26 05:28 | 52.00042 | -7.51832 | 36226 ft | 448 kts | 271° |
| 2026-04-26 05:29 | 52.00356 | -7.61867 | 36221 ft | 448 kts | 270° |
| 2026-04-26 05:29 | 52.00663 | -7.71979 | 36226 ft | 448 kts | 270° |
| 2026-04-26 05:30 | 52.00961 | -7.82080 | 36223 ft | 448 kts | 270° |
| 2026-04-26 05:30 | 52.01250 | -7.92190 | 36219 ft | 448 kts | 270° |
| 2026-04-26 05:31 | 52.01532 | -8.02288 | 36220 ft | 448 kts | 270° |
| 2026-04-26 05:31 | 52.01804 | -8.12406 | 36217 ft | 448 kts | 270° |
| 2026-04-26 05:32 | 52.02067 | -8.22497 | 36217 ft | 447 kts | 270° |
| 2026-04-26 05:32 | 52.02322 | -8.32593 | 36213 ft | 447 kts | 270° |
| 2026-04-26 05:33 | 52.02568 | -8.42685 | 36215 ft | 447 kts | 269° |
| 2026-04-26 05:33 | 52.02803 | -8.52697 | 36218 ft | 447 kts | 269° |
| 2026-04-26 05:34 | 52.03032 | -8.62782 | 36217 ft | 447 kts | 269° |
| 2026-04-26 05:34 | 52.03252 | -8.72882 | 36221 ft | 447 kts | 269° |
| 2026-04-26 05:35 | 52.03463 | -8.82965 | 36227 ft | 447 kts | 269° |
| 2026-04-26 05:35 | 52.03666 | -8.93063 | 36236 ft | 447 kts | 269° |
| 2026-04-26 05:36 | 52.03860 | -9.03156 | 36245 ft | 447 kts | 269° |
| 2026-04-26 05:36 | 52.04046 | -9.13267 | 36245 ft | 447 kts | 268° |
| 2026-04-26 05:37 | 52.04221 | -9.23292 | 36254 ft | 447 kts | 268° |
| 2026-04-26 05:37 | 52.04390 | -9.33389 | 36251 ft | 448 kts | 268° |
| 2026-04-26 05:38 | 52.04550 | -9.43516 | 36251 ft | 448 kts | 268° |
| 2026-04-26 05:38 | 52.04701 | -9.53653 | 36252 ft | 449 kts | 268° |
| 2026-04-26 05:39 | 52.04844 | -9.63792 | 36254 ft | 449 kts | 268° |
| 2026-04-26 05:39 | 52.04978 | -9.73943 | 36250 ft | 449 kts | 268° |
| 2026-04-26 05:40 | 52.05104 | -9.84104 | 36257 ft | 449 kts | 268° |
| 2026-04-26 05:40 | 52.05220 | -9.94194 | 36250 ft | 449 kts | 268° |
| 2026-04-26 05:41 | 52.05327 | -10.04351 | 36256 ft | 450 kts | 267° |
| 2026-04-26 05:41 | 52.05428 | -10.14512 | 36251 ft | 450 kts | 267° |
| 2026-04-26 05:42 | 52.05519 | -10.24691 | 36252 ft | 451 kts | 267° |
| 2026-04-26 05:42 | 52.05601 | -10.34890 | 36251 ft | 451 kts | 267° |
| 2026-04-26 05:43 | 52.05675 | -10.45098 | 36251 ft | 452 kts | 267° |
| 2026-04-26 05:43 | 52.05740 | -10.55324 | 36250 ft | 452 kts | 267° |
| 2026-04-26 05:44 | 52.05796 | -10.65485 | 36250 ft | 453 kts | 267° |
| 2026-04-26 05:44 | 52.05843 | -10.75723 | 36251 ft | 453 kts | 267° |
| 2026-04-26 05:45 | 52.05882 | -10.85976 | 36248 ft | 454 kts | 267° |
| 2026-04-26 05:45 | 52.05911 | -10.96227 | 36249 ft | 454 kts | 267° |
| 2026-04-26 05:46 | 52.05932 | -11.06494 | 36247 ft | 455 kts | 267° |
| 2026-04-26 05:46 | 52.05944 | -11.16779 | 36243 ft | 455 kts | 267° |
| 2026-04-26 05:47 | 52.05947 | -11.27065 | 36248 ft | 455 kts | 267° |
| 2026-04-26 05:47 | 52.05941 | -11.37361 | 36248 ft | 456 kts | 266° |
| 2026-04-26 05:48 | 52.05926 | -11.47669 | 36256 ft | 456 kts | 266° |
| 2026-04-26 05:48 | 52.05901 | -11.57987 | 36248 ft | 457 kts | 266° |
| 2026-04-26 05:49 | 52.05848 | -11.73479 | 36240 ft | 457 kts | 266° |
| 2026-04-26 05:50 | 52.05802 | -11.83821 | 36253 ft | 458 kts | 266° |
| 2026-04-26 05:50 | 52.05746 | -11.94171 | 36243 ft | 458 kts | 266° |
| 2026-04-26 05:51 | 52.05681 | -12.04533 | 36247 ft | 459 kts | 266° |
| 2026-04-26 05:51 | 52.05606 | -12.14903 | 36253 ft | 459 kts | 266° |
| 2026-04-26 05:52 | 52.05523 | -12.25283 | 36249 ft | 459 kts | 266° |
| 2026-04-26 05:52 | 52.05431 | -12.35596 | 36239 ft | 460 kts | 266° |
| 2026-04-26 05:53 | 52.05329 | -12.46003 | 36246 ft | 460 kts | 266° |
| 2026-04-26 05:53 | 52.05219 | -12.56398 | 36243 ft | 461 kts | 266° |
| 2026-04-26 05:54 | 52.05098 | -12.66818 | 36238 ft | 461 kts | 266° |
| 2026-04-26 05:54 | 52.04969 | -12.77254 | 36238 ft | 462 kts | 266° |
| 2026-04-26 05:55 | 52.04830 | -12.87688 | 36243 ft | 462 kts | 266° |
| 2026-04-26 05:55 | 52.04681 | -12.98135 | 36236 ft | 463 kts | 266° |
| 2026-04-26 05:56 | 52.04523 | -13.08600 | 36237 ft | 463 kts | 266° |
| 2026-04-26 05:56 | 52.04356 | -13.19063 | 36243 ft | 464 kts | 266° |
| 2026-04-26 05:57 | 52.04180 | -13.29528 | 36236 ft | 464 kts | 266° |
| 2026-04-26 05:57 | 52.03994 | -13.40014 | 36238 ft | 464 kts | 266° |
| 2026-04-26 05:58 | 52.03799 | -13.50495 | 36236 ft | 465 kts | 266° |
| 2026-04-26 05:58 | 52.03595 | -13.60925 | 36237 ft | 465 kts | 266° |
| 2026-04-26 05:59 | 52.03381 | -13.71424 | 36239 ft | 465 kts | 266° |
| 2026-04-26 05:59 | 52.03157 | -13.81923 | 36234 ft | 465 kts | 266° |
| 2026-04-26 06:00 | 52.02924 | -13.92419 | 36232 ft | 465 kts | 266° |
| 2026-04-26 06:00 | 52.02682 | -14.02912 | 36233 ft | 465 kts | 266° |
| 2026-04-26 06:01 | 52.02431 | -14.13404 | 36230 ft | 465 kts | 266° |
| 2026-04-26 06:01 | 52.02170 | -14.23891 | 36225 ft | 464 kts | 266° |
| 2026-04-26 06:02 | 52.01900 | -14.34362 | 36230 ft | 464 kts | 266° |
| 2026-04-26 06:02 | 52.01621 | -14.44841 | 36224 ft | 464 kts | 266° |
| 2026-04-26 06:03 | 52.01333 | -14.55315 | 36224 ft | 464 kts | 266° |
| 2026-04-26 06:03 | 52.01038 | -14.65689 | 36229 ft | 463 kts | 266° |
| 2026-04-26 06:04 | 52.00733 | -14.76134 | 36235 ft | 463 kts | 266° |
| 2026-04-26 06:04 | 52.00418 | -14.86570 | 36231 ft | 463 kts | 266° |
| 2026-04-26 06:05 | 52.00095 | -14.97007 | 36220 ft | 463 kts | 266° |
| 2026-04-26 06:05 | 52.00095 | -15.07472 | 36325 ft | 465 kts | 271° |
| 2026-04-26 06:05 | 52.00210 | -15.12724 | 36577 ft | 464 kts | 271° |
| 2026-04-26 06:06 | 52.00329 | -15.17944 | 36864 ft | 462 kts | 271° |
| 2026-04-26 06:06 | 52.00446 | -15.23144 | 37128 ft | 461 kts | 271° |
| 2026-04-26 06:06 | 52.00555 | -15.28343 | 37356 ft | 461 kts | 271° |
| 2026-04-26 06:06 | 52.00658 | -15.33541 | 37570 ft | 460 kts | 271° |
| 2026-04-26 06:07 | 52.00755 | -15.38739 | 37788 ft | 460 kts | 271° |
| 2026-04-26 06:07 | 52.00847 | -15.43914 | 38008 ft | 460 kts | 271° |
| 2026-04-26 06:07 | 52.00937 | -15.49108 | 38141 ft | 461 kts | 271° |
| 2026-04-26 06:08 | 52.01108 | -15.59544 | 38217 ft | 462 kts | 271° |
| 2026-04-26 06:08 | 52.01271 | -15.69937 | 38210 ft | 458 kts | 271° |
| 2026-04-26 06:09 | 52.01423 | -15.80231 | 38213 ft | 455 kts | 271° |
| 2026-04-26 06:09 | 52.01543 | -15.88762 | 38219 ft | 454 kts | 271° |
| 2026-04-26 06:10 | 52.01678 | -15.99016 | 38218 ft | 455 kts | 271° |
| 2026-04-26 06:10 | 52.01805 | -16.09286 | 38212 ft | 455 kts | 271° |
| 2026-04-26 06:11 | 52.01923 | -16.19575 | 38213 ft | 456 kts | 270° |
| 2026-04-26 06:11 | 52.02032 | -16.29879 | 38213 ft | 457 kts | 270° |
| 2026-04-26 06:12 | 52.02133 | -16.40193 | 38212 ft | 457 kts | 270° |
| 2026-04-26 06:12 | 52.02224 | -16.50459 | 38213 ft | 457 kts | 270° |
| 2026-04-26 06:13 | 52.02306 | -16.60778 | 38208 ft | 457 kts | 270° |
| 2026-04-26 06:13 | 52.02380 | -16.71098 | 38210 ft | 457 kts | 270° |
| 2026-04-26 06:14 | 52.02444 | -16.81408 | 38209 ft | 457 kts | 270° |
| 2026-04-26 06:14 | 52.02500 | -16.91737 | 38209 ft | 457 kts | 270° |
| 2026-04-26 06:15 | 52.02546 | -17.02036 | 38208 ft | 457 kts | 270° |
| 2026-04-26 06:15 | 52.02583 | -17.12361 | 38208 ft | 457 kts | 270° |
| 2026-04-26 06:16 | 52.02612 | -17.22674 | 38211 ft | 457 kts | 270° |
| 2026-04-26 06:16 | 52.02631 | -17.32990 | 38208 ft | 457 kts | 270° |
| 2026-04-26 06:17 | 52.02642 | -17.43299 | 38206 ft | 457 kts | 270° |
| 2026-04-26 06:17 | 52.02643 | -17.53605 | 38214 ft | 456 kts | 270° |
| 2026-04-26 06:18 | 52.02635 | -17.63906 | 38208 ft | 456 kts | 270° |
| 2026-04-26 06:18 | 52.02619 | -17.74135 | 38209 ft | 456 kts | 270° |
| 2026-04-26 06:19 | 52.02593 | -17.84503 | 38209 ft | 456 kts | 270° |
| 2026-04-26 06:19 | 52.02559 | -17.94728 | 38208 ft | 456 kts | 270° |
| 2026-04-26 06:20 | 52.02515 | -18.05014 | 38207 ft | 455 kts | 270° |
| 2026-04-26 06:20 | 52.02463 | -18.15295 | 38207 ft | 455 kts | 270° |
| 2026-04-26 06:21 | 52.02402 | -18.25560 | 38210 ft | 454 kts | 270° |
| 2026-04-26 06:21 | 52.02332 | -18.35807 | 38204 ft | 454 kts | 269° |
| 2026-04-26 06:22 | 52.02253 | -18.46044 | 38206 ft | 453 kts | 269° |
| 2026-04-26 06:22 | 52.02166 | -18.56274 | 38204 ft | 452 kts | 269° |
| 2026-04-26 06:23 | 52.02069 | -18.66480 | 38204 ft | 452 kts | 269° |
| 2026-04-26 06:23 | 52.01965 | -18.76603 | 38208 ft | 451 kts | 269° |
| 2026-04-26 06:24 | 52.01852 | -18.86795 | 38205 ft | 451 kts | 269° |
| 2026-04-26 06:24 | 52.01729 | -18.96969 | 38205 ft | 450 kts | 269° |
| 2026-04-26 06:25 | 52.01599 | -19.07128 | 38205 ft | 450 kts | 269° |
| 2026-04-26 06:25 | 52.01459 | -19.17292 | 38203 ft | 450 kts | 269° |
| 2026-04-26 06:26 | 52.01311 | -19.27434 | 38204 ft | 449 kts | 269° |
| 2026-04-26 06:26 | 52.01155 | -19.37567 | 38203 ft | 449 kts | 269° |
| 2026-04-26 06:27 | 52.00989 | -19.47699 | 38205 ft | 449 kts | 269° |
| 2026-04-26 06:27 | 52.00815 | -19.57838 | 38203 ft | 448 kts | 269° |
| 2026-04-26 06:28 | 52.00633 | -19.67948 | 38203 ft | 448 kts | 269° |
| 2026-04-26 06:28 | 52.00443 | -19.78059 | 38205 ft | 448 kts | 269° |
| 2026-04-26 06:29 | 52.00243 | -19.88176 | 38204 ft | 448 kts | 269° |
| 2026-04-26 06:29 | 52.00037 | -19.98276 | 38202 ft | 448 kts | 268° |
| 2026-04-26 06:30 | 51.99890 | -20.08376 | 38202 ft | 447 kts | 269° |
| 2026-04-26 06:30 | 51.99822 | -20.18394 | 38203 ft | 447 kts | 270° |
| 2026-04-26 06:31 | 51.99748 | -20.28483 | 38201 ft | 447 kts | 269° |
| 2026-04-26 06:31 | 51.99654 | -20.38568 | 38203 ft | 447 kts | 269° |
| 2026-04-26 06:32 | 51.99545 | -20.48646 | 38201 ft | 447 kts | 269° |
| 2026-04-26 06:32 | 51.99425 | -20.58731 | 38202 ft | 447 kts | 269° |
| 2026-04-26 06:33 | 51.99297 | -20.68805 | 38200 ft | 447 kts | 269° |
| 2026-04-26 06:33 | 51.99161 | -20.78889 | 38201 ft | 447 kts | 269° |
| 2026-04-26 06:34 | 51.99016 | -20.88982 | 38201 ft | 447 kts | 269° |
| 2026-04-26 06:34 | 51.98862 | -20.99068 | 38202 ft | 447 kts | 269° |
| 2026-04-26 06:35 | 51.98700 | -21.09152 | 38200 ft | 447 kts | 269° |
| 2026-04-26 06:35 | 51.98529 | -21.19239 | 38199 ft | 447 kts | 269° |
| 2026-04-26 06:36 | 51.98350 | -21.29325 | 38196 ft | 447 kts | 268° |
| 2026-04-26 06:36 | 51.98162 | -21.39415 | 38197 ft | 448 kts | 268° |
| 2026-04-26 06:37 | 51.97965 | -21.49511 | 38199 ft | 448 kts | 268° |
| 2026-04-26 06:37 | 51.97759 | -21.59611 | 38196 ft | 448 kts | 268° |
| 2026-04-26 06:38 | 51.97545 | -21.69713 | 38196 ft | 448 kts | 268° |
| 2026-04-26 06:38 | 51.97322 | -21.79821 | 38198 ft | 449 kts | 268° |
| 2026-04-26 06:39 | 51.97091 | -21.89879 | 38198 ft | 449 kts | 268° |
| 2026-04-26 06:39 | 51.96850 | -21.99993 | 38195 ft | 449 kts | 268° |
| 2026-04-26 06:40 | 51.96601 | -22.10109 | 38191 ft | 449 kts | 268° |
| 2026-04-26 06:40 | 51.96343 | -22.20239 | 38189 ft | 449 kts | 268° |
| 2026-04-26 06:41 | 51.96076 | -22.30353 | 38192 ft | 449 kts | 268° |
| 2026-04-26 06:41 | 51.95801 | -22.40463 | 38194 ft | 449 kts | 268° |
| 2026-04-26 06:42 | 51.95517 | -22.50558 | 38187 ft | 448 kts | 268° |
| 2026-04-26 06:42 | 51.95227 | -22.60598 | 38191 ft | 448 kts | 268° |
| 2026-04-26 06:43 | 51.94926 | -22.70681 | 38186 ft | 448 kts | 268° |
| 2026-04-26 06:43 | 51.94617 | -22.80754 | 38185 ft | 447 kts | 268° |
| 2026-04-26 06:44 | 51.94301 | -22.90798 | 38185 ft | 446 kts | 267° |
| 2026-04-26 06:44 | 51.93975 | -23.00851 | 38182 ft | 446 kts | 267° |
| 2026-04-26 06:45 | 51.93642 | -23.10881 | 38184 ft | 446 kts | 267° |
| 2026-04-26 06:45 | 51.93301 | -23.20901 | 38181 ft | 445 kts | 267° |
| 2026-04-26 06:46 | 51.92951 | -23.30915 | 38178 ft | 445 kts | 267° |
| 2026-04-26 06:46 | 51.92593 | -23.40921 | 38180 ft | 445 kts | 267° |
| 2026-04-26 06:47 | 51.92226 | -23.50919 | 38172 ft | 445 kts | 267° |
| 2026-04-26 06:47 | 51.91851 | -23.60928 | 38174 ft | 444 kts | 266° |
| 2026-04-26 06:48 | 51.91468 | -23.70912 | 38170 ft | 444 kts | 266° |
| 2026-04-26 06:48 | 51.91077 | -23.80907 | 38175 ft | 444 kts | 266° |
| 2026-04-26 06:49 | 51.90677 | -23.90890 | 38165 ft | 444 kts | 266° |
| 2026-04-26 06:49 | 51.90268 | -24.00873 | 38168 ft | 444 kts | 266° |
| 2026-04-26 06:50 | 51.89851 | -24.10862 | 38167 ft | 444 kts | 266° |
| 2026-04-26 06:50 | 51.89426 | -24.20832 | 38165 ft | 444 kts | 266° |
| 2026-04-26 06:51 | 51.88995 | -24.30747 | 38166 ft | 444 kts | 266° |
| 2026-04-26 06:51 | 51.88329 | -24.45706 | 38160 ft | 444 kts | 266° |
| 2026-04-26 06:52 | 51.87875 | -24.55664 | 38163 ft | 444 kts | 265° |
| 2026-04-26 06:52 | 51.87412 | -24.65632 | 38156 ft | 444 kts | 265° |
| 2026-04-26 06:53 | 51.86940 | -24.75601 | 38152 ft | 444 kts | 265° |
| 2026-04-26 06:53 | 51.86461 | -24.85563 | 38153 ft | 444 kts | 265° |
| 2026-04-26 06:54 | 51.85973 | -24.95518 | 38150 ft | 444 kts | 265° |
| 2026-04-26 06:54 | 51.85476 | -25.05484 | 38149 ft | 444 kts | 265° |
| 2026-04-26 06:55 | 51.84970 | -25.15451 | 38149 ft | 444 kts | 265° |
| 2026-04-26 06:55 | 51.84460 | -25.25336 | 38146 ft | 444 kts | 265° |
| 2026-04-26 06:56 | 51.84023 | -25.33676 | 38146 ft | 444 kts | 265° |
| 2026-04-26 06:56 | 51.83495 | -25.43623 | 38141 ft | 444 kts | 264° |
| 2026-04-26 06:57 | 51.82961 | -25.53508 | 38142 ft | 444 kts | 264° |
| 2026-04-26 06:57 | 51.82415 | -25.63457 | 38140 ft | 444 kts | 264° |
| 2026-04-26 06:58 | 51.81861 | -25.73396 | 38140 ft | 444 kts | 264° |
| 2026-04-26 06:58 | 51.81299 | -25.83336 | 38136 ft | 444 kts | 264° |
| 2026-04-26 06:59 | 51.80728 | -25.93280 | 38134 ft | 444 kts | 264° |
| 2026-04-26 06:59 | 51.80149 | -26.03218 | 38133 ft | 444 kts | 264° |
| 2026-04-26 07:00 | 51.79562 | -26.13137 | 38127 ft | 444 kts | 264° |
| 2026-04-26 07:00 | 51.78967 | -26.23053 | 38126 ft | 443 kts | 263° |
| 2026-04-26 07:01 | 51.78364 | -26.32961 | 38125 ft | 443 kts | 263° |
| 2026-04-26 07:01 | 51.77753 | -26.42864 | 38126 ft | 443 kts | 263° |
| 2026-04-26 07:02 | 51.77134 | -26.52751 | 38117 ft | 443 kts | 263° |
| 2026-04-26 07:02 | 51.76507 | -26.62637 | 38116 ft | 443 kts | 263° |
| 2026-04-26 07:03 | 51.75872 | -26.72518 | 38109 ft | 442 kts | 263° |
| 2026-04-26 07:03 | 51.75229 | -26.82390 | 38106 ft | 442 kts | 262° |
| 2026-04-26 07:04 | 51.74578 | -26.92260 | 38105 ft | 442 kts | 262° |
| 2026-04-26 07:04 | 51.73923 | -27.02059 | 38100 ft | 442 kts | 262° |
| 2026-04-26 07:05 | 51.73254 | -27.11930 | 38091 ft | 442 kts | 262° |
| 2026-04-26 07:05 | 51.72578 | -27.21784 | 38089 ft | 442 kts | 262° |
| 2026-04-26 07:06 | 51.71895 | -27.31636 | 38088 ft | 442 kts | 262° |
| 2026-04-26 07:06 | 51.71203 | -27.41476 | 38082 ft | 442 kts | 262° |
| 2026-04-26 07:07 | 51.70503 | -27.51315 | 38077 ft | 442 kts | 261° |
| 2026-04-26 07:07 | 51.69795 | -27.61148 | 38070 ft | 442 kts | 261° |
| 2026-04-26 07:08 | 51.69078 | -27.70993 | 38068 ft | 442 kts | 261° |
| 2026-04-26 07:08 | 51.68354 | -27.80818 | 38063 ft | 442 kts | 261° |
| 2026-04-26 07:09 | 51.67620 | -27.90656 | 38058 ft | 442 kts | 261° |
| 2026-04-26 07:09 | 51.66883 | -28.00433 | 38055 ft | 442 kts | 261° |
| 2026-04-26 07:11 | 51.64991 | -28.25025 | 38044 ft | 443 kts | 261° |
| 2026-04-26 07:11 | 51.64218 | -28.34882 | 38038 ft | 443 kts | 261° |
| 2026-04-26 07:12 | 51.63436 | -28.44737 | 38032 ft | 444 kts | 260° |
| 2026-04-26 07:12 | 51.62647 | -28.54582 | 38031 ft | 444 kts | 260° |
| 2026-04-26 07:13 | 51.61850 | -28.64426 | 38027 ft | 444 kts | 260° |
| 2026-04-26 07:13 | 51.61043 | -28.74273 | 38015 ft | 444 kts | 260° |
| 2026-04-26 07:14 | 51.60228 | -28.84123 | 38011 ft | 444 kts | 260° |
| 2026-04-26 07:14 | 51.59406 | -28.93962 | 38007 ft | 444 kts | 260° |
| 2026-04-26 07:15 | 51.58576 | -29.03789 | 38001 ft | 443 kts | 260° |
| 2026-04-26 07:15 | 51.57738 | -29.13599 | 37994 ft | 443 kts | 260° |
| 2026-04-26 07:16 | 51.56894 | -29.23394 | 37990 ft | 442 kts | 260° |
| 2026-04-26 07:16 | 51.56042 | -29.33183 | 37984 ft | 442 kts | 259° |
| 2026-04-26 07:17 | 51.55182 | -29.42956 | 37974 ft | 441 kts | 259° |
| 2026-04-26 07:17 | 51.54317 | -29.52706 | 37974 ft | 441 kts | 259° |
| 2026-04-26 07:18 | 51.53443 | -29.62450 | 37968 ft | 441 kts | 259° |
| 2026-04-26 07:18 | 51.52567 | -29.72126 | 37958 ft | 441 kts | 259° |
| 2026-04-26 07:19 | 51.51679 | -29.81855 | 37957 ft | 440 kts | 259° |
| 2026-04-26 07:19 | 51.50783 | -29.91582 | 37948 ft | 440 kts | 259° |
| 2026-04-26 07:20 | 51.49908 | -30.01314 | 37945 ft | 441 kts | 261° |
| 2026-04-26 07:20 | 51.49326 | -30.11110 | 37939 ft | 441 kts | 262° |
| 2026-04-26 07:21 | 51.48788 | -30.20943 | 37929 ft | 442 kts | 262° |
| 2026-04-26 07:21 | 51.48236 | -30.30758 | 37924 ft | 442 kts | 262° |
| 2026-04-26 07:22 | 51.47664 | -30.40568 | 37915 ft | 442 kts | 261° |
| 2026-04-26 07:22 | 51.47084 | -30.50308 | 37910 ft | 441 kts | 261° |
| 2026-04-26 07:23 | 51.46491 | -30.60089 | 37907 ft | 441 kts | 261° |
| 2026-04-26 07:23 | 51.45890 | -30.69878 | 37896 ft | 440 kts | 261° |
| 2026-04-26 07:24 | 51.45283 | -30.79637 | 37890 ft | 440 kts | 261° |
| 2026-04-26 07:24 | 51.44668 | -30.89393 | 37885 ft | 440 kts | 261° |
| 2026-04-26 07:25 | 51.44045 | -30.99144 | 37879 ft | 439 kts | 260° |
| 2026-04-26 07:25 | 51.43414 | -31.08886 | 37874 ft | 440 kts | 260° |
| 2026-04-26 07:26 | 51.42774 | -31.18634 | 37868 ft | 440 kts | 260° |
| 2026-04-26 07:26 | 51.42127 | -31.28378 | 37865 ft | 440 kts | 260° |
| 2026-04-26 07:27 | 51.41471 | -31.38122 | 37860 ft | 440 kts | 260° |
| 2026-04-26 07:27 | 51.40806 | -31.47881 | 37850 ft | 440 kts | 259° |
| 2026-04-26 07:28 | 51.40134 | -31.57628 | 37843 ft | 441 kts | 259° |
| 2026-04-26 07:28 | 51.39456 | -31.67333 | 37842 ft | 441 kts | 259° |
| 2026-04-26 07:29 | 51.38766 | -31.77086 | 37831 ft | 441 kts | 259° |
| 2026-04-26 07:29 | 51.38068 | -31.86843 | 37828 ft | 441 kts | 259° |
| 2026-04-26 07:30 | 51.37362 | -31.96604 | 37824 ft | 441 kts | 259° |
| 2026-04-26 07:30 | 51.36647 | -32.06358 | 37820 ft | 441 kts | 259° |
| 2026-04-26 07:31 | 51.35924 | -32.16119 | 37815 ft | 441 kts | 258° |
| 2026-04-26 07:31 | 51.35194 | -32.25858 | 37803 ft | 441 kts | 258° |
| 2026-04-26 07:32 | 51.34456 | -32.35604 | 37797 ft | 441 kts | 258° |
| 2026-04-26 07:32 | 51.33710 | -32.45331 | 37796 ft | 441 kts | 258° |
| 2026-04-26 07:33 | 51.32960 | -32.55004 | 37792 ft | 441 kts | 258° |
| 2026-04-26 07:33 | 51.32198 | -32.64723 | 37783 ft | 441 kts | 258° |
| 2026-04-26 07:34 | 51.31428 | -32.74449 | 37790 ft | 441 kts | 258° |
| 2026-04-26 07:34 | 51.30649 | -32.84169 | 37785 ft | 441 kts | 257° |
| 2026-04-26 07:35 | 51.29863 | -32.93882 | 37763 ft | 441 kts | 257° |
| 2026-04-26 07:35 | 51.29068 | -33.03605 | 37774 ft | 441 kts | 257° |
| 2026-04-26 07:36 | 51.28267 | -33.13302 | 37775 ft | 441 kts | 257° |
| 2026-04-26 07:36 | 51.27455 | -33.23024 | 37764 ft | 441 kts | 257° |
| 2026-04-26 07:37 | 51.26641 | -33.32671 | 37761 ft | 441 kts | 257° |
| 2026-04-26 07:37 | 51.25808 | -33.42450 | 37762 ft | 442 kts | 256° |
| 2026-04-26 07:38 | 51.24977 | -33.52106 | 37763 ft | 442 kts | 256° |
| 2026-04-26 07:38 | 51.24131 | -33.61831 | 37757 ft | 442 kts | 256° |
| 2026-04-26 07:39 | 51.23278 | -33.71558 | 37760 ft | 443 kts | 256° |
| 2026-04-26 07:39 | 51.22416 | -33.81279 | 37756 ft | 443 kts | 256° |
| 2026-04-26 07:40 | 51.21544 | -33.91018 | 37750 ft | 443 kts | 256° |
| 2026-04-26 07:40 | 51.20663 | -34.00764 | 37752 ft | 444 kts | 256° |
| 2026-04-26 07:41 | 51.19773 | -34.10519 | 37749 ft | 444 kts | 255° |
| 2026-04-26 07:41 | 51.18875 | -34.20268 | 37746 ft | 445 kts | 255° |
| 2026-04-26 07:42 | 51.17968 | -34.30026 | 37746 ft | 445 kts | 255° |
| 2026-04-26 07:42 | 51.17051 | -34.39803 | 37742 ft | 446 kts | 255° |
| 2026-04-26 07:43 | 51.16124 | -34.49585 | 37744 ft | 446 kts | 255° |
| 2026-04-26 07:43 | 51.15346 | -34.57734 | 37736 ft | 447 kts | 255° |
| 2026-04-26 07:44 | 51.14248 | -34.69112 | 37731 ft | 448 kts | 255° |
| 2026-04-26 07:44 | 51.13294 | -34.78910 | 37737 ft | 448 kts | 255° |
| 2026-04-26 07:45 | 51.12494 | -34.87065 | 37733 ft | 449 kts | 255° |
| 2026-04-26 07:45 | 51.11524 | -34.96878 | 37731 ft | 449 kts | 255° |
| 2026-04-26 07:46 | 51.10543 | -35.06704 | 37719 ft | 450 kts | 255° |
| 2026-04-26 07:46 | 51.09552 | -35.16551 | 37734 ft | 450 kts | 254° |
| 2026-04-26 07:47 | 51.08552 | -35.26394 | 37722 ft | 451 kts | 254° |
| 2026-04-26 07:47 | 51.07542 | -35.36245 | 37719 ft | 452 kts | 254° |
| 2026-04-26 07:48 | 51.06521 | -35.46125 | 37720 ft | 453 kts | 254° |
| 2026-04-26 07:48 | 51.05491 | -35.56006 | 37729 ft | 453 kts | 254° |
| 2026-04-26 07:49 | 51.04451 | -35.65899 | 37720 ft | 454 kts | 254° |
| 2026-04-26 07:49 | 51.03403 | -35.75783 | 37715 ft | 454 kts | 254° |
| 2026-04-26 07:50 | 51.01817 | -35.90586 | 37714 ft | 455 kts | 254° |
| 2026-04-26 07:50 | 51.00745 | -36.00492 | 37710 ft | 455 kts | 254° |
| 2026-04-26 07:51 | 50.99664 | -36.10397 | 37710 ft | 455 kts | 254° |
| 2026-04-26 07:51 | 50.98573 | -36.20313 | 37695 ft | 456 kts | 253° |
| 2026-04-26 07:52 | 50.97473 | -36.30221 | 37705 ft | 456 kts | 253° |
| 2026-04-26 07:52 | 50.96363 | -36.40143 | 37702 ft | 457 kts | 253° |
| 2026-04-26 07:53 | 50.95251 | -36.50011 | 37695 ft | 457 kts | 253° |
| 2026-04-26 07:53 | 50.94123 | -36.59940 | 37690 ft | 458 kts | 253° |
| 2026-04-26 07:54 | 50.92983 | -36.69885 | 37689 ft | 458 kts | 253° |
| 2026-04-26 07:54 | 50.91836 | -36.79820 | 37689 ft | 459 kts | 253° |
| 2026-04-26 07:55 | 50.90680 | -36.89763 | 37681 ft | 459 kts | 253° |
| 2026-04-26 07:55 | 50.89514 | -36.99707 | 37679 ft | 459 kts | 253° |
| 2026-04-26 07:56 | 50.88338 | -37.09650 | 37675 ft | 459 kts | 253° |
| 2026-04-26 07:56 | 50.87156 | -37.19583 | 37672 ft | 459 kts | 253° |
| 2026-04-26 07:57 | 50.85961 | -37.29536 | 37665 ft | 460 kts | 253° |
| 2026-04-26 07:57 | 50.84760 | -37.39474 | 37665 ft | 460 kts | 253° |
| 2026-04-26 07:58 | 50.83549 | -37.49411 | 37665 ft | 460 kts | 253° |
| 2026-04-26 07:58 | 50.82328 | -37.59360 | 37659 ft | 461 kts | 253° |
| 2026-04-26 07:59 | 50.81098 | -37.69306 | 37661 ft | 461 kts | 253° |
| 2026-04-26 07:59 | 50.79865 | -37.79208 | 37648 ft | 462 kts | 253° |
| 2026-04-26 08:00 | 50.78614 | -37.89174 | 37642 ft | 462 kts | 253° |
| 2026-04-26 08:00 | 50.77356 | -37.99128 | 37642 ft | 462 kts | 253° |
| 2026-04-26 08:01 | 50.76087 | -38.09091 | 37643 ft | 463 kts | 253° |
| 2026-04-26 08:01 | 50.74808 | -38.19066 | 37640 ft | 463 kts | 253° |
| 2026-04-26 08:02 | 50.73520 | -38.29037 | 37637 ft | 464 kts | 253° |
| 2026-04-26 08:02 | 50.72222 | -38.39016 | 37630 ft | 464 kts | 253° |
| 2026-04-26 08:03 | 50.70926 | -38.48914 | 37623 ft | 464 kts | 253° |
| 2026-04-26 08:03 | 50.69611 | -38.58882 | 37627 ft | 464 kts | 253° |
| 2026-04-26 08:04 | 50.68286 | -38.68855 | 37621 ft | 465 kts | 253° |
| 2026-04-26 08:04 | 50.66949 | -38.78840 | 37613 ft | 465 kts | 253° |
| 2026-04-26 08:05 | 50.65604 | -38.88824 | 37608 ft | 466 kts | 253° |
| 2026-04-26 08:05 | 50.64249 | -38.98813 | 37603 ft | 466 kts | 253° |
| 2026-04-26 08:06 | 50.62884 | -39.08814 | 37600 ft | 467 kts | 253° |
| 2026-04-26 08:06 | 50.61509 | -39.18813 | 37600 ft | 467 kts | 253° |
| 2026-04-26 08:07 | 50.60125 | -39.28811 | 37595 ft | 468 kts | 253° |
| 2026-04-26 08:07 | 50.58739 | -39.38749 | 37581 ft | 468 kts | 253° |
| 2026-04-26 08:08 | 50.57335 | -39.48761 | 37573 ft | 468 kts | 253° |
| 2026-04-26 08:08 | 50.55923 | -39.58759 | 37577 ft | 469 kts | 253° |
| 2026-04-26 08:09 | 50.54498 | -39.68775 | 37571 ft | 469 kts | 253° |
| 2026-04-26 08:09 | 50.53066 | -39.78787 | 37565 ft | 470 kts | 253° |
| 2026-04-26 08:10 | 50.51625 | -39.88797 | 37562 ft | 470 kts | 253° |
| 2026-04-26 08:10 | 50.50156 | -39.98790 | 37560 ft | 469 kts | 251° |
| 2026-04-26 08:11 | 50.48048 | -40.08431 | 37556 ft | 465 kts | 245° |
| 2026-04-26 08:11 | 50.45708 | -40.17897 | 37548 ft | 465 kts | 245° |
| 2026-04-26 08:12 | 50.43366 | -40.27374 | 37541 ft | 466 kts | 245° |
| 2026-04-26 08:12 | 50.41037 | -40.36856 | 37540 ft | 466 kts | 245° |
| 2026-04-26 08:13 | 50.38708 | -40.46348 | 37535 ft | 466 kts | 245° |
| 2026-04-26 08:13 | 50.36375 | -40.55818 | 37533 ft | 466 kts | 245° |
| 2026-04-26 08:14 | 50.34048 | -40.65226 | 37523 ft | 466 kts | 245° |
| 2026-04-26 08:14 | 50.31697 | -40.74681 | 37521 ft | 466 kts | 245° |
| 2026-04-26 08:15 | 50.29342 | -40.84115 | 37517 ft | 466 kts | 245° |
| 2026-04-26 08:15 | 50.26976 | -40.93551 | 37509 ft | 466 kts | 245° |
| 2026-04-26 08:16 | 50.24601 | -41.02984 | 37511 ft | 467 kts | 244° |
| 2026-04-26 08:16 | 50.22216 | -41.12419 | 37506 ft | 468 kts | 244° |
| 2026-04-26 08:17 | 50.19816 | -41.21870 | 37503 ft | 468 kts | 244° |
| 2026-04-26 08:17 | 50.17408 | -41.31315 | 37500 ft | 469 kts | 244° |
| 2026-04-26 08:18 | 50.14985 | -41.40781 | 37497 ft | 470 kts | 244° |
| 2026-04-26 08:18 | 50.12552 | -41.50244 | 37491 ft | 470 kts | 244° |
| 2026-04-26 08:19 | 50.10127 | -41.59637 | 37490 ft | 471 kts | 244° |
| 2026-04-26 08:19 | 50.07675 | -41.69095 | 37480 ft | 471 kts | 244° |
| 2026-04-26 08:20 | 50.05215 | -41.78547 | 37479 ft | 471 kts | 244° |
| 2026-04-26 08:20 | 50.02744 | -41.87998 | 37476 ft | 472 kts | 244° |
| 2026-04-26 08:21 | 50.00266 | -41.97440 | 37474 ft | 472 kts | 244° |
| 2026-04-26 08:21 | 49.97776 | -42.06887 | 37477 ft | 472 kts | 244° |
| 2026-04-26 08:22 | 49.95277 | -42.16329 | 37460 ft | 472 kts | 244° |
| 2026-04-26 08:22 | 49.92770 | -42.25763 | 37461 ft | 473 kts | 244° |
| 2026-04-26 08:23 | 49.90256 | -42.35186 | 37460 ft | 473 kts | 244° |
| 2026-04-26 08:23 | 49.87731 | -42.44609 | 37461 ft | 473 kts | 244° |
| 2026-04-26 08:24 | 49.85196 | -42.54032 | 37456 ft | 474 kts | 244° |
| 2026-04-26 08:24 | 49.82654 | -42.63444 | 37451 ft | 474 kts | 244° |
| 2026-04-26 08:25 | 49.80115 | -42.72805 | 37449 ft | 475 kts | 244° |
| 2026-04-26 08:25 | 49.77549 | -42.82231 | 37444 ft | 475 kts | 244° |
| 2026-04-26 08:26 | 49.74978 | -42.91634 | 37443 ft | 475 kts | 244° |
| 2026-04-26 08:26 | 49.72394 | -43.01051 | 37438 ft | 475 kts | 244° |
| 2026-04-26 08:27 | 49.69806 | -43.10442 | 37438 ft | 475 kts | 244° |
| 2026-04-26 08:27 | 49.67207 | -43.19835 | 37433 ft | 475 kts | 244° |
| 2026-04-26 08:28 | 49.64602 | -43.29213 | 37428 ft | 475 kts | 244° |
| 2026-04-26 08:28 | 49.61988 | -43.38584 | 37427 ft | 476 kts | 244° |
| 2026-04-26 08:29 | 49.59366 | -43.47946 | 37426 ft | 476 kts | 244° |
| 2026-04-26 08:29 | 49.56732 | -43.57317 | 37417 ft | 476 kts | 244° |
| 2026-04-26 08:30 | 49.54093 | -43.66669 | 37426 ft | 476 kts | 244° |
| 2026-04-26 08:30 | 49.51446 | -43.76009 | 37413 ft | 477 kts | 244° |
| 2026-04-26 08:31 | 49.49236 | -43.83779 | 37416 ft | 477 kts | 244° |
| 2026-04-26 08:31 | 49.46570 | -43.93124 | 37413 ft | 477 kts | 244° |
| 2026-04-26 08:32 | 49.43895 | -44.02461 | 37404 ft | 478 kts | 244° |
| 2026-04-26 08:32 | 49.40774 | -44.13306 | 37405 ft | 478 kts | 244° |
| 2026-04-26 08:33 | 49.38529 | -44.21081 | 37406 ft | 478 kts | 244° |
| 2026-04-26 08:33 | 49.35830 | -44.30392 | 37394 ft | 478 kts | 244° |
| 2026-04-26 08:34 | 49.33116 | -44.39719 | 37393 ft | 478 kts | 244° |
| 2026-04-26 08:34 | 49.30399 | -44.49022 | 37388 ft | 478 kts | 244° |
| 2026-04-26 08:35 | 49.27669 | -44.58332 | 37392 ft | 479 kts | 244° |
| 2026-04-26 08:35 | 49.24930 | -44.67635 | 37389 ft | 479 kts | 244° |
| 2026-04-26 08:36 | 49.22187 | -44.76920 | 37385 ft | 479 kts | 244° |
| 2026-04-26 08:36 | 49.19434 | -44.86199 | 37382 ft | 479 kts | 244° |
| 2026-04-26 08:37 | 49.16691 | -44.95414 | 37364 ft | 479 kts | 244° |
| 2026-04-26 08:37 | 49.13920 | -45.04684 | 37373 ft | 480 kts | 244° |
| 2026-04-26 08:38 | 49.11144 | -45.13936 | 37361 ft | 480 kts | 244° |
| 2026-04-26 08:38 | 49.08358 | -45.23190 | 37359 ft | 480 kts | 244° |
| 2026-04-26 08:39 | 49.05563 | -45.32434 | 37359 ft | 480 kts | 244° |
| 2026-04-26 08:39 | 49.02762 | -45.41667 | 37361 ft | 480 kts | 244° |
| 2026-04-26 08:40 | 48.99950 | -45.50898 | 37355 ft | 480 kts | 244° |
| 2026-04-26 08:40 | 48.97133 | -45.60114 | 37355 ft | 480 kts | 244° |
| 2026-04-26 08:41 | 48.94307 | -45.69324 | 37350 ft | 480 kts | 244° |
| 2026-04-26 08:41 | 48.91472 | -45.78527 | 37347 ft | 481 kts | 244° |
| 2026-04-26 08:42 | 48.88648 | -45.87663 | 37347 ft | 481 kts | 244° |
| 2026-04-26 08:42 | 48.85800 | -45.96841 | 37342 ft | 481 kts | 244° |
| 2026-04-26 08:43 | 48.82938 | -46.06031 | 37340 ft | 481 kts | 244° |
| 2026-04-26 08:43 | 48.80070 | -46.15206 | 37339 ft | 481 kts | 244° |
| 2026-04-26 08:44 | 48.77197 | -46.24365 | 37338 ft | 481 kts | 244° |
| 2026-04-26 08:44 | 48.74308 | -46.33541 | 37336 ft | 482 kts | 244° |
| 2026-04-26 08:45 | 48.71416 | -46.42689 | 37332 ft | 482 kts | 244° |
| 2026-04-26 08:45 | 48.68514 | -46.51839 | 37335 ft | 482 kts | 244° |
| 2026-04-26 08:46 | 48.65603 | -46.60982 | 37333 ft | 482 kts | 244° |
| 2026-04-26 08:46 | 48.62683 | -46.70122 | 37328 ft | 482 kts | 244° |
| 2026-04-26 08:47 | 48.59757 | -46.79247 | 37330 ft | 483 kts | 244° |
| 2026-04-26 08:47 | 48.56841 | -46.88306 | 37330 ft | 483 kts | 244° |
| 2026-04-26 08:48 | 48.53899 | -46.97416 | 37330 ft | 483 kts | 244° |
| 2026-04-26 08:48 | 48.50950 | -47.06514 | 37329 ft | 483 kts | 244° |
| 2026-04-26 08:49 | 48.47991 | -47.15608 | 37333 ft | 483 kts | 244° |
| 2026-04-26 08:49 | 48.45030 | -47.24679 | 37333 ft | 483 kts | 244° |
| 2026-04-26 08:50 | 48.42057 | -47.33752 | 37334 ft | 483 kts | 244° |
| 2026-04-26 08:50 | 48.39076 | -47.42817 | 37337 ft | 483 kts | 244° |
| 2026-04-26 08:51 | 48.34595 | -47.56384 | 37337 ft | 483 kts | 243° |
| 2026-04-26 08:52 | 48.31596 | -47.65421 | 37340 ft | 483 kts | 243° |
| 2026-04-26 08:52 | 48.28595 | -47.74437 | 37342 ft | 483 kts | 243° |
| 2026-04-26 08:53 | 48.25585 | -47.83447 | 37342 ft | 483 kts | 243° |
| 2026-04-26 08:53 | 48.22565 | -47.92454 | 37342 ft | 483 kts | 243° |
| 2026-04-26 08:54 | 48.19539 | -48.01445 | 37346 ft | 483 kts | 243° |
| 2026-04-26 08:54 | 48.16502 | -48.10440 | 37345 ft | 483 kts | 243° |
| 2026-04-26 08:55 | 48.13463 | -48.19410 | 37349 ft | 483 kts | 243° |
| 2026-04-26 08:55 | 48.10413 | -48.28381 | 37353 ft | 483 kts | 243° |
| 2026-04-26 08:56 | 48.07377 | -48.37281 | 37354 ft | 484 kts | 243° |
| 2026-04-26 08:56 | 48.04312 | -48.46234 | 37357 ft | 484 kts | 243° |
| 2026-04-26 08:57 | 48.01239 | -48.55179 | 37359 ft | 484 kts | 243° |
| 2026-04-26 08:57 | 47.98162 | -48.64105 | 37360 ft | 484 kts | 243° |
| 2026-04-26 08:58 | 47.95071 | -48.73040 | 37362 ft | 484 kts | 243° |
| 2026-04-26 08:58 | 47.91979 | -48.81949 | 37367 ft | 483 kts | 243° |
| 2026-04-26 08:59 | 47.88886 | -48.90829 | 37371 ft | 483 kts | 243° |
| 2026-04-26 08:59 | 47.85780 | -48.99716 | 37375 ft | 483 kts | 243° |
| 2026-04-26 09:00 | 47.82675 | -49.08570 | 37377 ft | 482 kts | 243° |
| 2026-04-26 09:00 | 47.79561 | -49.17421 | 37385 ft | 483 kts | 243° |
| 2026-04-26 09:01 | 47.76455 | -49.26219 | 37390 ft | 483 kts | 243° |
| 2026-04-26 09:01 | 47.73325 | -49.35055 | 37402 ft | 484 kts | 243° |
| 2026-04-26 09:02 | 47.70179 | -49.43910 | 37393 ft | 484 kts | 243° |
| 2026-04-26 09:02 | 47.67028 | -49.52743 | 37399 ft | 484 kts | 243° |
| 2026-04-26 09:03 | 47.63874 | -49.61556 | 37393 ft | 484 kts | 243° |
| 2026-04-26 09:03 | 47.60714 | -49.70361 | 37405 ft | 483 kts | 243° |
| 2026-04-26 09:04 | 47.57570 | -49.79091 | 37419 ft | 483 kts | 243° |
| 2026-04-26 09:04 | 47.54403 | -49.87858 | 37421 ft | 483 kts | 243° |
| 2026-04-26 09:05 | 47.51227 | -49.96624 | 37428 ft | 483 kts | 244° |
| 2026-04-26 09:05 | 47.48537 | -50.05679 | 37431 ft | 481 kts | 252° |
| 2026-04-26 09:06 | 47.46327 | -50.15037 | 37439 ft | 482 kts | 252° |
| 2026-04-26 09:06 | 47.44116 | -50.24395 | 37446 ft | 483 kts | 252° |
| 2026-04-26 09:07 | 47.41864 | -50.33759 | 37448 ft | 484 kts | 252° |
| 2026-04-26 09:07 | 47.39591 | -50.43112 | 37451 ft | 484 kts | 252° |
| 2026-04-26 09:08 | 47.37304 | -50.52464 | 37453 ft | 485 kts | 252° |
| 2026-04-26 09:08 | 47.35011 | -50.61810 | 37460 ft | 485 kts | 252° |
| 2026-04-26 09:09 | 47.32710 | -50.71161 | 37453 ft | 485 kts | 252° |
| 2026-04-26 09:09 | 47.30397 | -50.80510 | 37469 ft | 486 kts | 252° |
| 2026-04-26 09:10 | 47.28090 | -50.89802 | 37479 ft | 486 kts | 252° |
| 2026-04-26 09:10 | 47.25759 | -50.99150 | 37473 ft | 486 kts | 252° |
| 2026-04-26 09:11 | 47.23416 | -51.08505 | 37486 ft | 487 kts | 252° |
| 2026-04-26 09:11 | 47.21069 | -51.17844 | 37491 ft | 487 kts | 252° |
| 2026-04-26 09:12 | 47.18708 | -51.27196 | 37493 ft | 488 kts | 252° |
| 2026-04-26 09:12 | 47.16355 | -51.36478 | 37501 ft | 488 kts | 252° |
| 2026-04-26 09:13 | 47.13964 | -51.45876 | 37500 ft | 488 kts | 252° |
| 2026-04-26 09:13 | 47.11593 | -51.55153 | 37503 ft | 488 kts | 251° |
| 2026-04-26 09:14 | 47.09204 | -51.64464 | 37506 ft | 488 kts | 251° |
| 2026-04-26 09:14 | 47.06805 | -51.73776 | 37513 ft | 488 kts | 251° |
| 2026-04-26 09:15 | 47.04398 | -51.83087 | 37518 ft | 488 kts | 251° |
| 2026-04-26 09:15 | 47.01987 | -51.92379 | 37524 ft | 488 kts | 251° |
| 2026-04-26 09:16 | 46.98998 | -52.01329 | 37527 ft | 491 kts | 241° |
| 2026-04-26 09:16 | 46.94963 | -52.09421 | 37525 ft | 494 kts | 233° |
| 2026-04-26 09:17 | 46.90605 | -52.17212 | 37527 ft | 494 kts | 233° |
| 2026-04-26 09:17 | 46.86248 | -52.24992 | 37527 ft | 495 kts | 233° |
| 2026-04-26 09:18 | 46.81908 | -52.32796 | 37525 ft | 495 kts | 233° |
| 2026-04-26 09:18 | 46.77579 | -52.40598 | 37522 ft | 494 kts | 233° |
| 2026-04-26 09:19 | 46.73278 | -52.48335 | 37529 ft | 494 kts | 233° |
| 2026-04-26 09:19 | 46.68949 | -52.56095 | 37524 ft | 493 kts | 233° |
| 2026-04-26 09:20 | 46.64620 | -52.63833 | 37523 ft | 493 kts | 233° |
| 2026-04-26 09:20 | 46.60290 | -52.71549 | 37526 ft | 492 kts | 233° |
| 2026-04-26 09:21 | 46.55960 | -52.79244 | 37523 ft | 492 kts | 232° |
| 2026-04-26 09:21 | 46.51621 | -52.86933 | 37523 ft | 491 kts | 232° |
| 2026-04-26 09:22 | 46.48019 | -52.93300 | 37542 ft | 491 kts | 232° |
| 2026-04-26 09:22 | 46.42977 | -53.02187 | 37546 ft | 490 kts | 232° |
| 2026-04-26 09:23 | 46.39340 | -53.08581 | 37548 ft | 490 kts | 232° |
| 2026-04-26 09:23 | 46.34999 | -53.16193 | 37552 ft | 490 kts | 232° |
| 2026-04-26 09:24 | 46.30655 | -53.23789 | 37560 ft | 490 kts | 232° |
| 2026-04-26 09:24 | 46.26306 | -53.31373 | 37565 ft | 490 kts | 232° |
| 2026-04-26 09:25 | 46.21950 | -53.38949 | 37566 ft | 490 kts | 232° |
| 2026-04-26 09:25 | 46.17610 | -53.46475 | 37584 ft | 490 kts | 232° |
| 2026-04-26 09:26 | 46.13236 | -53.54042 | 37590 ft | 491 kts | 232° |
| 2026-04-26 09:26 | 46.08857 | -53.61595 | 37594 ft | 491 kts | 232° |
| 2026-04-26 09:27 | 46.04471 | -53.69141 | 37598 ft | 491 kts | 233° |
| 2026-04-26 09:27 | 46.00077 | -53.76678 | 37610 ft | 491 kts | 232° |
| 2026-04-26 09:28 | 45.95675 | -53.84209 | 37619 ft | 492 kts | 232° |
| 2026-04-26 09:28 | 45.91297 | -53.91680 | 37618 ft | 492 kts | 232° |
| 2026-04-26 09:29 | 45.86883 | -53.99188 | 37625 ft | 492 kts | 232° |
| 2026-04-26 09:29 | 45.82468 | -54.06681 | 37628 ft | 492 kts | 232° |
| 2026-04-26 09:30 | 45.78046 | -54.14167 | 37637 ft | 492 kts | 232° |
| 2026-04-26 09:30 | 45.73619 | -54.21639 | 37640 ft | 492 kts | 232° |
| 2026-04-26 09:31 | 45.69183 | -54.29106 | 37642 ft | 492 kts | 232° |
| 2026-04-26 09:31 | 45.64750 | -54.36550 | 37650 ft | 491 kts | 232° |
| 2026-04-26 09:32 | 45.60316 | -54.43974 | 37650 ft | 491 kts | 232° |
| 2026-04-26 09:32 | 45.55878 | -54.51388 | 37659 ft | 491 kts | 232° |
| 2026-04-26 09:33 | 45.51436 | -54.58785 | 37663 ft | 491 kts | 232° |
| 2026-04-26 09:33 | 45.46993 | -54.66164 | 37670 ft | 490 kts | 232° |
| 2026-04-26 09:34 | 45.42572 | -54.73489 | 37672 ft | 490 kts | 232° |
| 2026-04-26 09:34 | 45.38091 | -54.80895 | 37676 ft | 490 kts | 232° |
| 2026-04-26 09:35 | 45.33668 | -54.88184 | 37685 ft | 490 kts | 232° |
| 2026-04-26 09:35 | 45.29209 | -54.95515 | 37689 ft | 490 kts | 232° |
| 2026-04-26 09:36 | 45.24741 | -55.02839 | 37694 ft | 491 kts | 232° |
| 2026-04-26 09:36 | 45.20269 | -55.10152 | 37695 ft | 491 kts | 232° |
| 2026-04-26 09:37 | 45.15792 | -55.17454 | 37707 ft | 491 kts | 232° |
| 2026-04-26 09:37 | 45.11314 | -55.24739 | 37712 ft | 491 kts | 232° |
| 2026-04-26 09:38 | 45.06827 | -55.32017 | 37711 ft | 490 kts | 232° |
| 2026-04-26 09:38 | 45.02338 | -55.39282 | 37721 ft | 490 kts | 232° |
| 2026-04-26 09:39 | 44.97846 | -55.46531 | 37727 ft | 490 kts | 232° |
| 2026-04-26 09:39 | 44.93355 | -55.53762 | 37730 ft | 489 kts | 232° |
| 2026-04-26 09:40 | 44.88890 | -55.60932 | 37732 ft | 489 kts | 232° |
| 2026-04-26 09:40 | 44.84401 | -55.68121 | 37740 ft | 488 kts | 232° |
| 2026-04-26 09:41 | 44.79904 | -55.75307 | 37746 ft | 488 kts | 232° |
| 2026-04-26 09:41 | 44.75410 | -55.82467 | 37746 ft | 488 kts | 232° |
| 2026-04-26 09:42 | 44.70916 | -55.89610 | 37759 ft | 488 kts | 232° |
| 2026-04-26 09:42 | 44.66414 | -55.96747 | 37767 ft | 488 kts | 232° |
| 2026-04-26 09:43 | 44.61910 | -56.03868 | 37763 ft | 488 kts | 232° |
| 2026-04-26 09:43 | 44.57406 | -56.10975 | 37769 ft | 488 kts | 231° |
| 2026-04-26 09:44 | 44.52889 | -56.18083 | 37776 ft | 488 kts | 231° |
| 2026-04-26 09:44 | 44.48397 | -56.25132 | 37778 ft | 488 kts | 231° |
| 2026-04-26 09:45 | 44.43874 | -56.32213 | 37782 ft | 488 kts | 231° |
| 2026-04-26 09:45 | 44.39348 | -56.39280 | 37783 ft | 487 kts | 231° |
| 2026-04-26 09:46 | 44.34822 | -56.46331 | 37790 ft | 487 kts | 231° |
| 2026-04-26 09:46 | 44.30285 | -56.53380 | 37796 ft | 487 kts | 231° |
| 2026-04-26 09:47 | 44.25758 | -56.60396 | 37793 ft | 487 kts | 231° |
| 2026-04-26 09:47 | 44.21210 | -56.67428 | 37805 ft | 487 kts | 231° |
| 2026-04-26 09:48 | 44.16667 | -56.74435 | 37811 ft | 487 kts | 231° |
| 2026-04-26 09:48 | 44.12119 | -56.81433 | 37810 ft | 487 kts | 231° |
| 2026-04-26 09:49 | 44.07565 | -56.88425 | 37811 ft | 487 kts | 231° |
| 2026-04-26 09:49 | 44.02989 | -56.95378 | 37816 ft | 488 kts | 229° |
| 2026-04-26 09:50 | 43.97653 | -57.01284 | 37855 ft | 495 kts | 216° |
| 2026-04-26 09:50 | 43.94687 | -57.03628 | 38090 ft | 499 kts | 210° |
| 2026-04-26 09:50 | 43.91556 | -57.05691 | 38430 ft | 497 kts | 209° |
| 2026-04-26 09:50 | 43.88421 | -57.07687 | 38727 ft | 495 kts | 208° |
| 2026-04-26 09:51 | 43.85292 | -57.09661 | 38994 ft | 493 kts | 208° |
| 2026-04-26 09:51 | 43.82174 | -57.11633 | 39216 ft | 492 kts | 208° |
| 2026-04-26 09:51 | 43.79059 | -57.13618 | 39407 ft | 492 kts | 208° |
| 2026-04-26 09:51 | 43.75948 | -57.15615 | 39605 ft | 492 kts | 208° |
| 2026-04-26 09:52 | 43.72853 | -57.17609 | 39746 ft | 493 kts | 209° |
| 2026-04-26 09:52 | 43.63516 | -57.23642 | 39828 ft | 492 kts | 209° |
| 2026-04-26 09:53 | 43.57346 | -57.27614 | 39849 ft | 488 kts | 209° |
| 2026-04-26 09:53 | 43.51194 | -57.31566 | 39846 ft | 487 kts | 209° |
| 2026-04-26 09:54 | 43.45088 | -57.35479 | 39850 ft | 487 kts | 209° |
| 2026-04-26 09:54 | 43.38928 | -57.39419 | 39849 ft | 488 kts | 208° |
| 2026-04-26 09:55 | 43.32754 | -57.43357 | 39857 ft | 490 kts | 208° |
| 2026-04-26 09:55 | 43.26560 | -57.47299 | 39860 ft | 491 kts | 208° |
| 2026-04-26 09:56 | 43.20354 | -57.51240 | 39861 ft | 493 kts | 208° |
| 2026-04-26 09:56 | 43.14120 | -57.55188 | 39866 ft | 494 kts | 208° |
| 2026-04-26 09:57 | 43.07880 | -57.59133 | 39864 ft | 495 kts | 208° |
| 2026-04-26 09:57 | 43.01628 | -57.63076 | 39871 ft | 495 kts | 208° |
| 2026-04-26 09:58 | 42.95365 | -57.67017 | 39875 ft | 495 kts | 208° |
| 2026-04-26 09:58 | 42.89105 | -57.70946 | 39878 ft | 495 kts | 208° |
| 2026-04-26 09:59 | 42.83905 | -57.74204 | 39878 ft | 495 kts | 209° |
| 2026-04-26 09:59 | 42.76594 | -57.78774 | 39882 ft | 494 kts | 209° |
| 2026-04-26 10:00 | 42.70360 | -57.82661 | 39885 ft | 492 kts | 209° |
| 2026-04-26 10:00 | 42.64177 | -57.86509 | 39888 ft | 491 kts | 209° |
| 2026-04-26 10:01 | 42.57964 | -57.90366 | 39891 ft | 490 kts | 209° |
| 2026-04-26 10:01 | 42.51769 | -57.94205 | 39895 ft | 489 kts | 209° |
| 2026-04-26 10:02 | 42.45581 | -57.98030 | 39901 ft | 489 kts | 209° |
| 2026-04-26 10:02 | 42.39382 | -58.01855 | 39902 ft | 488 kts | 209° |
| 2026-04-26 10:03 | 42.33196 | -58.05662 | 39899 ft | 488 kts | 209° |
| 2026-04-26 10:03 | 42.27010 | -58.09461 | 39907 ft | 488 kts | 209° |
| 2026-04-26 10:04 | 42.20824 | -58.13252 | 39920 ft | 489 kts | 209° |
| 2026-04-26 10:04 | 42.14631 | -58.17039 | 39917 ft | 489 kts | 209° |
| 2026-04-26 10:05 | 42.08480 | -58.20793 | 39922 ft | 489 kts | 209° |
| 2026-04-26 10:05 | 42.02282 | -58.24567 | 39937 ft | 489 kts | 209° |
| 2026-04-26 10:06 | 41.96091 | -58.28328 | 39933 ft | 488 kts | 209° |
| 2026-04-26 10:06 | 41.89895 | -58.32084 | 39932 ft | 488 kts | 210° |
| 2026-04-26 10:07 | 41.83710 | -58.35826 | 39934 ft | 488 kts | 210° |
| 2026-04-26 10:07 | 41.77521 | -58.39563 | 39935 ft | 487 kts | 210° |
| 2026-04-26 10:08 | 41.71339 | -58.43286 | 39944 ft | 487 kts | 210° |
| 2026-04-26 10:08 | 41.65157 | -58.47002 | 39945 ft | 487 kts | 210° |
| 2026-04-26 10:09 | 41.60029 | -58.50080 | 39954 ft | 486 kts | 210° |
| 2026-04-26 10:09 | 41.52806 | -58.54404 | 39951 ft | 486 kts | 210° |
| 2026-04-26 10:10 | 41.46633 | -58.58092 | 39955 ft | 486 kts | 210° |
| 2026-04-26 10:10 | 41.40460 | -58.61771 | 39955 ft | 485 kts | 210° |
| 2026-04-26 10:11 | 41.34293 | -58.65439 | 39964 ft | 485 kts | 210° |
| 2026-04-26 10:11 | 41.29172 | -58.68481 | 39960 ft | 485 kts | 210° |
| 2026-04-26 10:12 | 41.22024 | -58.72716 | 39963 ft | 484 kts | 210° |
| 2026-04-26 10:12 | 41.15869 | -58.76354 | 39964 ft | 484 kts | 210° |
| 2026-04-26 10:13 | 41.10714 | -58.79396 | 39972 ft | 483 kts | 210° |
| 2026-04-26 10:13 | 41.04573 | -58.83013 | 39969 ft | 483 kts | 210° |
| 2026-04-26 10:14 | 40.98428 | -58.86625 | 39976 ft | 483 kts | 210° |
| 2026-04-26 10:14 | 40.92335 | -58.90198 | 39979 ft | 482 kts | 210° |
| 2026-04-26 10:15 | 40.86197 | -58.93791 | 39988 ft | 482 kts | 210° |
| 2026-04-26 10:15 | 40.80074 | -58.97368 | 39984 ft | 481 kts | 210° |
| 2026-04-26 10:16 | 40.73947 | -59.00940 | 39996 ft | 481 kts | 210° |
| 2026-04-26 10:16 | 40.67817 | -59.04506 | 39993 ft | 480 kts | 210° |
| 2026-04-26 10:17 | 40.61705 | -59.08055 | 39998 ft | 479 kts | 210° |
| 2026-04-26 10:17 | 40.55608 | -59.11588 | 39995 ft | 478 kts | 210° |
| 2026-04-26 10:18 | 40.49569 | -59.15080 | 40002 ft | 477 kts | 210° |
| 2026-04-26 10:18 | 40.43488 | -59.18590 | 39997 ft | 476 kts | 210° |
| 2026-04-26 10:19 | 40.37429 | -59.22080 | 40004 ft | 476 kts | 210° |
| 2026-04-26 10:19 | 40.31373 | -59.25562 | 40010 ft | 475 kts | 210° |
| 2026-04-26 10:20 | 40.25322 | -59.29035 | 40011 ft | 474 kts | 210° |
| 2026-04-26 10:20 | 40.19278 | -59.32496 | 40009 ft | 474 kts | 210° |
| 2026-04-26 10:21 | 40.13237 | -59.35949 | 40014 ft | 473 kts | 210° |
| 2026-04-26 10:21 | 40.07237 | -59.39371 | 40014 ft | 473 kts | 210° |
| 2026-04-26 10:22 | 40.01205 | -59.42805 | 40016 ft | 473 kts | 210° |
| 2026-04-26 10:22 | 39.95179 | -59.46229 | 40018 ft | 472 kts | 210° |
| 2026-04-26 10:23 | 39.89155 | -59.49646 | 40021 ft | 472 kts | 210° |
| 2026-04-26 10:23 | 39.83129 | -59.53057 | 40019 ft | 472 kts | 210° |
| 2026-04-26 10:24 | 39.77109 | -59.56458 | 40020 ft | 472 kts | 210° |
| 2026-04-26 10:24 | 39.71089 | -59.59853 | 40017 ft | 471 kts | 210° |
| 2026-04-26 10:25 | 39.65072 | -59.63239 | 40021 ft | 471 kts | 210° |
| 2026-04-26 10:25 | 39.59059 | -59.66617 | 40017 ft | 471 kts | 210° |
| 2026-04-26 10:26 | 39.53040 | -59.69991 | 40021 ft | 471 kts | 210° |
| 2026-04-26 10:26 | 39.47033 | -59.73353 | 40020 ft | 470 kts | 210° |
| 2026-04-26 10:27 | 39.41015 | -59.76714 | 40031 ft | 470 kts | 210° |
| 2026-04-26 10:27 | 39.35061 | -59.80033 | 40024 ft | 469 kts | 210° |
| 2026-04-26 10:28 | 39.29059 | -59.83373 | 40025 ft | 469 kts | 210° |
| 2026-04-26 10:28 | 39.23075 | -59.86697 | 40022 ft | 468 kts | 211° |
| 2026-04-26 10:29 | 39.17093 | -59.90013 | 40023 ft | 468 kts | 211° |
| 2026-04-26 10:29 | 39.11121 | -59.93318 | 40019 ft | 467 kts | 211° |
| 2026-04-26 10:30 | 39.05144 | -59.96619 | 40027 ft | 467 kts | 211° |
| 2026-04-26 10:30 | 38.99176 | -59.99910 | 40024 ft | 466 kts | 211° |
| 2026-04-26 10:31 | 38.93214 | -60.03191 | 40024 ft | 466 kts | 211° |
| 2026-04-26 10:31 | 38.87258 | -60.06462 | 40024 ft | 465 kts | 211° |
| 2026-04-26 10:32 | 38.81308 | -60.09725 | 40030 ft | 465 kts | 211° |
| 2026-04-26 10:32 | 38.75366 | -60.12978 | 40034 ft | 464 kts | 211° |
| 2026-04-26 10:33 | 38.69433 | -60.16219 | 40038 ft | 464 kts | 211° |
| 2026-04-26 10:33 | 38.63539 | -60.19434 | 40034 ft | 463 kts | 211° |
| 2026-04-26 10:34 | 38.57620 | -60.22658 | 40032 ft | 463 kts | 211° |
| 2026-04-26 10:34 | 38.51711 | -60.25906 | 40036 ft | 460 kts | 213° |
| 2026-04-26 10:35 | 38.46266 | -60.29987 | 40044 ft | 449 kts | 222° |
| 2026-04-26 10:35 | 38.41155 | -60.34563 | 40045 ft | 449 kts | 223° |
| 2026-04-26 10:36 | 38.36033 | -60.39140 | 40048 ft | 450 kts | 222° |
| 2026-04-26 10:36 | 38.30892 | -60.43695 | 40041 ft | 450 kts | 222° |
| 2026-04-26 10:37 | 38.25740 | -60.48237 | 40050 ft | 451 kts | 222° |
| 2026-04-26 10:37 | 38.20582 | -60.52772 | 40048 ft | 451 kts | 222° |
| 2026-04-26 10:38 | 38.15428 | -60.57296 | 40049 ft | 450 kts | 222° |
| 2026-04-26 10:38 | 38.10272 | -60.61814 | 40049 ft | 450 kts | 222° |
| 2026-04-26 10:39 | 38.05124 | -60.66318 | 40051 ft | 449 kts | 222° |
| 2026-04-26 10:39 | 37.99981 | -60.70809 | 40053 ft | 448 kts | 222° |
| 2026-04-26 10:40 | 37.94845 | -60.75288 | 40061 ft | 448 kts | 222° |
| 2026-04-26 10:40 | 37.89713 | -60.79755 | 40061 ft | 447 kts | 222° |
| 2026-04-26 10:41 | 37.84582 | -60.84214 | 40066 ft | 447 kts | 222° |
| 2026-04-26 10:41 | 37.79478 | -60.88642 | 40060 ft | 447 kts | 222° |
| 2026-04-26 10:42 | 37.74337 | -60.93094 | 40064 ft | 447 kts | 222° |
| 2026-04-26 10:42 | 37.69201 | -60.97534 | 40073 ft | 448 kts | 222° |
| 2026-04-26 10:43 | 37.64058 | -61.01973 | 40069 ft | 448 kts | 222° |
| 2026-04-26 10:43 | 37.58914 | -61.06405 | 40067 ft | 448 kts | 222° |
| 2026-04-26 10:44 | 37.53767 | -61.10831 | 40068 ft | 448 kts | 222° |
| 2026-04-26 10:44 | 37.48617 | -61.15253 | 40071 ft | 448 kts | 221° |
| 2026-04-26 10:45 | 37.43467 | -61.19667 | 40073 ft | 448 kts | 221° |
| 2026-04-26 10:45 | 37.38352 | -61.24044 | 40075 ft | 448 kts | 221° |
| 2026-04-26 10:46 | 37.33202 | -61.28443 | 40078 ft | 448 kts | 221° |
| 2026-04-26 10:46 | 37.28049 | -61.32838 | 40076 ft | 448 kts | 221° |
| 2026-04-26 10:47 | 37.25475 | -61.35030 | 39711 ft | 448 kts | 221° |
| 2026-04-26 10:47 | 37.22906 | -61.37213 | 39856 ft | 444 kts | 223° |
| 2026-04-26 10:47 | 37.17803 | -61.41548 | 40002 ft | 442 kts | 223° |
| 2026-04-26 10:48 | 37.12694 | -61.45887 | 40080 ft | 444 kts | 222° |
| 2026-04-26 10:48 | 37.07565 | -61.50237 | 40084 ft | 447 kts | 222° |
| 2026-04-26 10:49 | 37.02402 | -61.54605 | 40088 ft | 449 kts | 222° |
| 2026-04-26 10:49 | 36.97212 | -61.58988 | 40085 ft | 451 kts | 222° |
| 2026-04-26 10:50 | 36.92886 | -61.62633 | 40089 ft | 451 kts | 222° |
| 2026-04-26 10:50 | 36.86800 | -61.67753 | 40083 ft | 451 kts | 222° |
| 2026-04-26 10:51 | 36.78994 | -61.74305 | 40088 ft | 449 kts | 221° |
| 2026-04-26 10:52 | 36.73844 | -61.78619 | 40089 ft | 448 kts | 221° |
| 2026-04-26 10:52 | 36.68682 | -61.82938 | 40089 ft | 446 kts | 221° |
| 2026-04-26 10:53 | 36.63532 | -61.87241 | 40088 ft | 445 kts | 221° |
| 2026-04-26 10:53 | 36.58400 | -61.91521 | 40093 ft | 445 kts | 221° |
| 2026-04-26 10:54 | 36.53233 | -61.95826 | 40302 ft | 449 kts | 221° |
| 2026-04-26 10:54 | 36.50633 | -61.97989 | 40220 ft | 449 kts | 221° |
| 2026-04-26 10:54 | 36.45455 | -62.02286 | 40108 ft | 446 kts | 221° |
| 2026-04-26 10:55 | 36.40323 | -62.06536 | 40099 ft | 441 kts | 221° |
| 2026-04-26 10:55 | 36.36096 | -62.10034 | 40094 ft | 438 kts | 221° |
| 2026-04-26 10:56 | 36.30181 | -62.14926 | 40106 ft | 437 kts | 221° |
| 2026-04-26 10:56 | 36.25114 | -62.19111 | 40109 ft | 438 kts | 221° |
| 2026-04-26 10:57 | 36.20037 | -62.23296 | 40111 ft | 439 kts | 221° |
| 2026-04-26 10:57 | 36.14946 | -62.27484 | 40104 ft | 440 kts | 221° |
| 2026-04-26 10:58 | 36.09844 | -62.31673 | 40111 ft | 440 kts | 221° |
| 2026-04-26 10:58 | 36.04741 | -62.35856 | 40107 ft | 440 kts | 221° |
| 2026-04-26 10:59 | 35.99669 | -62.40007 | 40111 ft | 440 kts | 221° |
| 2026-04-26 10:59 | 35.94575 | -62.44171 | 40122 ft | 439 kts | 221° |
| 2026-04-26 11:00 | 35.89481 | -62.48328 | 40112 ft | 438 kts | 221° |
| 2026-04-26 11:00 | 35.84400 | -62.52468 | 40107 ft | 437 kts | 221° |
| 2026-04-26 11:01 | 35.80181 | -62.55901 | 40127 ft | 437 kts | 221° |
| 2026-04-26 11:01 | 35.75115 | -62.60018 | 40109 ft | 436 kts | 221° |
| 2026-04-26 11:02 | 35.70057 | -62.64120 | 40120 ft | 435 kts | 221° |
| 2026-04-26 11:02 | 35.65001 | -62.68216 | 40118 ft | 435 kts | 221° |
| 2026-04-26 11:03 | 35.59954 | -62.72298 | 40124 ft | 434 kts | 221° |
| 2026-04-26 11:03 | 35.54909 | -62.76373 | 40124 ft | 434 kts | 221° |
| 2026-04-26 11:04 | 35.49892 | -62.80419 | 40117 ft | 434 kts | 221° |
| 2026-04-26 11:04 | 35.44842 | -62.84484 | 40123 ft | 434 kts | 221° |
| 2026-04-26 11:05 | 35.42314 | -62.86519 | 39830 ft | 434 kts | 219° |
| 2026-04-26 11:05 | 35.39772 | -62.88562 | 39965 ft | 437 kts | 219° |
| 2026-04-26 11:05 | 35.34645 | -62.92681 | 40095 ft | 445 kts | 219° |
| 2026-04-26 11:06 | 35.29426 | -62.96864 | 40135 ft | 450 kts | 219° |
| 2026-04-26 11:06 | 35.24171 | -63.01066 | 40117 ft | 450 kts | 219° |
| 2026-04-26 11:07 | 35.18988 | -63.05200 | 40131 ft | 442 kts | 219° |
| 2026-04-26 11:07 | 35.13825 | -63.09323 | 40134 ft | 443 kts | 218° |
| 2026-04-26 11:08 | 35.08655 | -63.13443 | 40129 ft | 445 kts | 218° |
| 2026-04-26 11:08 | 35.03707 | -63.17841 | 40130 ft | 440 kts | 225° |
| 2026-04-26 11:09 | 34.99175 | -63.22845 | 40129 ft | 440 kts | 227° |
| 2026-04-26 11:09 | 34.94655 | -63.27903 | 40129 ft | 441 kts | 227° |
| 2026-04-26 11:10 | 34.90075 | -63.32894 | 40132 ft | 442 kts | 226° |
| 2026-04-26 11:10 | 34.85457 | -63.37853 | 40131 ft | 443 kts | 226° |
| 2026-04-26 11:11 | 34.80824 | -63.42808 | 40131 ft | 443 kts | 226° |
| 2026-04-26 11:11 | 34.76190 | -63.47760 | 40128 ft | 443 kts | 226° |
| 2026-04-26 11:12 | 34.71552 | -63.52711 | 40131 ft | 444 kts | 226° |
| 2026-04-26 11:12 | 34.66911 | -63.57660 | 40126 ft | 444 kts | 225° |
| 2026-04-26 11:13 | 34.62270 | -63.62601 | 40132 ft | 444 kts | 225° |
| 2026-04-26 11:13 | 34.57623 | -63.67540 | 40126 ft | 444 kts | 225° |
| 2026-04-26 11:14 | 34.53002 | -63.72444 | 40126 ft | 444 kts | 225° |
| 2026-04-26 11:14 | 34.48339 | -63.77387 | 40129 ft | 445 kts | 225° |
| 2026-04-26 11:15 | 34.43678 | -63.82318 | 40136 ft | 445 kts | 225° |
| 2026-04-26 11:15 | 34.39005 | -63.87251 | 40127 ft | 446 kts | 225° |
| 2026-04-26 11:16 | 34.34328 | -63.92184 | 40123 ft | 446 kts | 225° |
| 2026-04-26 11:16 | 34.29641 | -63.97121 | 40138 ft | 447 kts | 225° |
| 2026-04-26 11:17 | 34.24977 | -64.02027 | 40136 ft | 447 kts | 225° |
| 2026-04-26 11:17 | 34.20282 | -64.06959 | 40134 ft | 447 kts | 225° |
| 2026-04-26 11:18 | 34.15576 | -64.11894 | 40131 ft | 448 kts | 225° |
| 2026-04-26 11:18 | 34.10870 | -64.16821 | 40131 ft | 448 kts | 224° |
| 2026-04-26 11:19 | 34.06162 | -64.21742 | 40114 ft | 448 kts | 224° |
| 2026-04-26 11:19 | 34.03784 | -64.24228 | 39511 ft | 456 kts | 224° |
| 2026-04-26 11:19 | 34.01389 | -64.26728 | 38929 ft | 454 kts | 224° |
| 2026-04-26 11:20 | 33.99004 | -64.29214 | 38218 ft | 453 kts | 224° |
| 2026-04-26 11:20 | 33.97430 | -64.30852 | 37750 ft | 452 kts | 224° |
| 2026-04-26 11:20 | 33.94246 | -64.34165 | 36822 ft | 450 kts | 224° |
| 2026-04-26 11:20 | 33.91880 | -64.36627 | 36142 ft | 450 kts | 224° |
| 2026-04-26 11:21 | 33.89506 | -64.39094 | 35395 ft | 451 kts | 224° |
| 2026-04-26 11:21 | 33.87126 | -64.41568 | 34605 ft | 454 kts | 224° |
| 2026-04-26 11:21 | 33.84723 | -64.44064 | 33717 ft | 457 kts | 224° |
| 2026-04-26 11:21 | 33.82320 | -64.46556 | 33121 ft | 454 kts | 224° |
| 2026-04-26 11:22 | 33.79963 | -64.48997 | 32511 ft | 451 kts | 224° |
| 2026-04-26 11:22 | 33.77594 | -64.51449 | 31943 ft | 448 kts | 224° |
| 2026-04-26 11:22 | 33.75234 | -64.53890 | 31384 ft | 445 kts | 224° |
| 2026-04-26 11:22 | 33.72895 | -64.56308 | 30833 ft | 442 kts | 223° |
| 2026-04-26 11:23 | 33.70571 | -64.58710 | 30276 ft | 439 kts | 223° |
| 2026-04-26 11:23 | 33.68261 | -64.61095 | 29618 ft | 436 kts | 223° |
| 2026-04-26 11:23 | 33.65971 | -64.63458 | 28964 ft | 432 kts | 223° |
| 2026-04-26 11:23 | 33.63700 | -64.65799 | 28354 ft | 428 kts | 223° |
| 2026-04-26 11:24 | 33.61455 | -64.68115 | 27744 ft | 424 kts | 223° |
| 2026-04-26 11:24 | 33.59224 | -64.70412 | 27134 ft | 420 kts | 223° |
| 2026-04-26 11:24 | 33.57013 | -64.72686 | 26553 ft | 417 kts | 223° |
| 2026-04-26 11:24 | 33.54846 | -64.74913 | 25977 ft | 413 kts | 222° |
| 2026-04-26 11:25 | 33.52670 | -64.77146 | 25396 ft | 411 kts | 222° |
| 2026-04-26 11:25 | 33.50479 | -64.79393 | 24807 ft | 408 kts | 222° |
| 2026-04-26 11:25 | 33.48350 | -64.81576 | 24216 ft | 406 kts | 222° |
| 2026-04-26 11:25 | 33.46210 | -64.83769 | 23625 ft | 405 kts | 222° |
| 2026-04-26 11:26 | 33.44075 | -64.85955 | 22971 ft | 402 kts | 222° |
| 2026-04-26 11:26 | 33.41954 | -64.88127 | 22356 ft | 399 kts | 222° |
| 2026-04-26 11:26 | 33.39858 | -64.90271 | 21795 ft | 395 kts | 222° |
| 2026-04-26 11:26 | 33.37774 | -64.92401 | 21231 ft | 392 kts | 222° |
| 2026-04-26 11:27 | 33.35709 | -64.94511 | 20668 ft | 389 kts | 222° |
| 2026-04-26 11:27 | 33.33660 | -64.96604 | 20126 ft | 386 kts | 222° |
| 2026-04-26 11:27 | 33.31629 | -64.98676 | 19584 ft | 383 kts | 222° |
| 2026-04-26 11:27 | 33.29605 | -65.00740 | 19050 ft | 381 kts | 222° |
| 2026-04-26 11:28 | 33.27591 | -65.02793 | 18509 ft | 379 kts | 222° |
| 2026-04-26 11:28 | 33.25590 | -65.04832 | 17898 ft | 378 kts | 222° |
| 2026-04-26 11:28 | 33.23598 | -65.06859 | 17343 ft | 375 kts | 222° |
| 2026-04-26 11:28 | 33.21624 | -65.08868 | 16804 ft | 371 kts | 222° |
| 2026-04-26 11:29 | 33.19663 | -65.10861 | 16283 ft | 368 kts | 222° |
| 2026-04-26 11:29 | 33.17723 | -65.12833 | 15766 ft | 365 kts | 222° |
| 2026-04-26 11:29 | 33.15800 | -65.14786 | 15281 ft | 362 kts | 222° |
| 2026-04-26 11:29 | 33.13889 | -65.16728 | 14777 ft | 359 kts | 222° |
| 2026-04-26 11:30 | 33.11991 | -65.18653 | 14289 ft | 357 kts | 222° |
| 2026-04-26 11:30 | 33.10743 | -65.19918 | 13953 ft | 355 kts | 222° |
| 2026-04-26 11:30 | 33.08193 | -65.22364 | 13217 ft | 347 kts | 212° |
| 2026-04-26 11:30 | 33.05932 | -65.23351 | 12699 ft | 348 kts | 191° |
| 2026-04-26 11:31 | 33.03519 | -65.23430 | 12214 ft | 348 kts | 174° |
| 2026-04-26 11:31 | 33.01176 | -65.22712 | 11742 ft | 347 kts | 162° |
| 2026-04-26 11:31 | 32.98931 | -65.21766 | 11259 ft | 346 kts | 161° |
| 2026-04-26 11:31 | 32.96667 | -65.20794 | 10738 ft | 346 kts | 161° |
| 2026-04-26 11:32 | 32.94432 | -65.19845 | 10565 ft | 334 kts | 161° |
| 2026-04-26 11:32 | 32.92269 | -65.18946 | 10407 ft | 323 kts | 162° |
| 2026-04-26 11:32 | 32.90178 | -65.18090 | 10262 ft | 313 kts | 162° |
| 2026-04-26 11:32 | 32.88155 | -65.17268 | 10131 ft | 302 kts | 162° |
| 2026-04-26 11:33 | 32.86197 | -65.16474 | 9972 ft | 293 kts | 162° |
| 2026-04-26 11:33 | 32.84284 | -65.15698 | 9710 ft | 288 kts | 162° |
| 2026-04-26 11:33 | 32.82401 | -65.14935 | 9456 ft | 283 kts | 162° |
| 2026-04-26 11:33 | 32.80551 | -65.14186 | 9208 ft | 279 kts | 162° |
| 2026-04-26 11:34 | 32.78712 | -65.13442 | 8969 ft | 279 kts | 162° |
| 2026-04-26 11:34 | 32.76876 | -65.12699 | 8721 ft | 279 kts | 162° |
| 2026-04-26 11:34 | 32.75030 | -65.11952 | 8481 ft | 280 kts | 162° |
| 2026-04-26 11:34 | 32.73188 | -65.11207 | 8230 ft | 280 kts | 162° |
| 2026-04-26 11:35 | 32.71341 | -65.10460 | 7985 ft | 280 kts | 162° |
| 2026-04-26 11:35 | 32.69500 | -65.09716 | 7730 ft | 279 kts | 162° |
| 2026-04-26 11:35 | 32.67665 | -65.08974 | 7477 ft | 278 kts | 162° |
| 2026-04-26 11:35 | 32.66451 | -65.08484 | 7321 ft | 277 kts | 162° |
| 2026-04-26 11:36 | 32.64017 | -65.07500 | 6994 ft | 276 kts | 162° |
| 2026-04-26 11:36 | 32.62207 | -65.06770 | 6745 ft | 274 kts | 162° |
| 2026-04-26 11:36 | 32.60403 | -65.06042 | 6490 ft | 273 kts | 162° |
| 2026-04-26 11:36 | 32.58611 | -65.05319 | 6266 ft | 271 kts | 162° |
| 2026-04-26 11:37 | 32.56854 | -65.04611 | 6009 ft | 269 kts | 162° |
| 2026-04-26 11:37 | 32.55087 | -65.03899 | 5758 ft | 268 kts | 162° |
| 2026-04-26 11:37 | 32.53327 | -65.03190 | 5528 ft | 266 kts | 162° |
| 2026-04-26 11:37 | 32.51580 | -65.02487 | 5291 ft | 264 kts | 162° |
| 2026-04-26 11:38 | 32.49826 | -65.01781 | 5055 ft | 262 kts | 162° |
| 2026-04-26 11:38 | 32.48103 | -65.01087 | 4820 ft | 261 kts | 162° |
| 2026-04-26 11:38 | 32.46391 | -65.00399 | 4602 ft | 258 kts | 162° |
| 2026-04-26 11:38 | 32.44727 | -64.99731 | 4354 ft | 255 kts | 162° |
| 2026-04-26 11:39 | 32.43077 | -64.99031 | 4116 ft | 248 kts | 155° |
| 2026-04-26 11:39 | 32.41810 | -64.97720 | 3944 ft | 242 kts | 123° |
| 2026-04-26 11:39 | 32.41191 | -64.95902 | 3719 ft | 237 kts | 102° |
| 2026-04-26 11:39 | 32.40884 | -64.94004 | 3499 ft | 233 kts | 101° |
| 2026-04-26 11:40 | 32.40574 | -64.92129 | 3280 ft | 230 kts | 101° |
| 2026-04-26 11:40 | 32.40267 | -64.90292 | 3064 ft | 226 kts | 101° |
| 2026-04-26 11:40 | 32.39964 | -64.88487 | 2863 ft | 221 kts | 101° |
| 2026-04-26 11:40 | 32.39667 | -64.86725 | 2678 ft | 216 kts | 101° |
| 2026-04-26 11:41 | 32.39372 | -64.84997 | 2482 ft | 211 kts | 102° |
| 2026-04-26 11:42 | 32.37855 | -64.76215 | 1371 ft | 130 kts | 101° |
| 2026-04-26 11:43 | 32.37674 | -64.75173 | 1181 ft | 130 kts | 102° |
| 2026-04-26 11:43 | 32.37502 | -64.74188 | 995 ft | 127 kts | 102° |
| 2026-04-26 11:43 | 32.37363 | -64.73395 | 833 ft | 127 kts | 101° |
| 2026-04-26 11:44 | 32.37185 | -64.72375 | 661 ft | 126 kts | 101° |
| 2026-04-26 11:44 | 32.37003 | -64.71371 | 478 ft | 126 kts | 101° |
| 2026-04-26 11:44 | 32.36830 | -64.70366 | 273 ft | 124 kts | 101° |
| 2026-04-26 11:44 | 32.36663 | -64.69360 | 92 ft | 124 kts | 101° |
| 2026-04-26 11:45 | 32.36489 | -64.68375 | 29 ft | 114 kts | 100° |
| 2026-04-26 11:45 | 32.36361 | -64.67624 | 28 ft | 67 kts | 100° |
| 2026-04-26 11:45 | 32.36301 | -64.67273 | 29 ft | 32 kts | 101° |
| 2026-04-26 11:45 | 32.36303 | -64.67070 | 27 ft | 16 kts | 68° |
| 2026-04-26 11:46 | 32.36344 | -64.66955 | 31 ft | 9 kts | 66° |
| 2026-04-26 11:46 | 32.36369 | -64.66945 | 32 ft | 3 kts | 336° |
| 2026-04-26 11:46 | 32.36385 | -64.66964 | 32 ft | 3 kts | 306° |
| 2026-04-26 11:46 | 32.36394 | -64.66991 | 32 ft | 4 kts | 283° |
| 2026-04-26 11:47 | 32.36406 | -64.67052 | 32 ft | 15 kts | 284° |
| 2026-04-26 11:47 | 32.36432 | -64.67208 | 31 ft | 21 kts | 281° |
| 2026-04-26 11:47 | 32.36461 | -64.67376 | 31 ft | 21 kts | 282° |
| 2026-04-26 11:47 | 32.36490 | -64.67544 | 31 ft | 21 kts | 281° |
| 2026-04-26 11:48 | 32.36519 | -64.67711 | 31 ft | 21 kts | 282° |
| 2026-04-26 11:48 | 32.36549 | -64.67879 | 31 ft | 21 kts | 282° |
| 2026-04-26 11:48 | 32.36568 | -64.67990 | 31 ft | 21 kts | 279° |
| 2026-04-26 11:48 | 32.36595 | -64.68158 | 32 ft | 21 kts | 281° |
| 2026-04-26 11:49 | 32.36634 | -64.68382 | 32 ft | 21 kts | 282° |
| 2026-04-26 11:49 | 32.36654 | -64.68493 | 31 ft | 21 kts | 282° |
| 2026-04-26 11:49 | 32.36692 | -64.68717 | 31 ft | 21 kts | 281° |
| 2026-04-26 11:49 | 32.36712 | -64.68827 | 31 ft | 19 kts | 282° |
| 2026-04-26 11:50 | 32.36702 | -64.68935 | 31 ft | 12 kts | 247° |
| 2026-04-26 11:50 | 32.36665 | -64.69041 | 27 ft | 19 kts | 248° |
| 2026-04-26 11:50 | 32.36577 | -64.69282 | 28 ft | 26 kts | 246° |
| 2026-04-26 11:50 | 32.36508 | -64.69478 | 32 ft | 26 kts | 247° |
| 2026-04-26 11:51 | 32.36461 | -64.69609 | 33 ft | 26 kts | 247° |
| 2026-04-26 11:51 | 32.36391 | -64.69805 | 33 ft | 26 kts | 247° |
| 2026-04-26 11:51 | 32.36331 | -64.69978 | 33 ft | 19 kts | 247° |
| 2026-04-26 11:51 | 32.36289 | -64.70094 | 33 ft | 15 kts | 247° |
| 2026-04-26 11:52 | 32.36257 | -64.70184 | 33 ft | 7 kts | 245° |
| 2026-04-26 11:52 | 32.36238 | -64.70236 | 33 ft | 7 kts | 247° |
| 2026-04-26 11:52 | 32.36226 | -64.70269 | 33 ft | 2 kts | 247° |
| 2026-04-26 11:52 | 32.36222 | -64.70280 | 33 ft | 1 kts | 247° |
| 2026-04-26 11:53 | 32.36221 | -64.70284 | 33 ft | 0 kts | 247° |
| 2026-04-26 11:53 | 32.36221 | -64.70285 | 33 ft | 0 kts | 247° |